Observation data for Coyanosa on 05/24/2019      Previous  Date  Next       Current Mesonet Observations  Soil Data  Daily Summary Page  Observations in Plain Language
KCO1 240500Z 14028G33KT 27/19 A2979 RMK A01 T02710190  RH  061%=      5-min Rain = 0
KCO1 240501Z 14025KT 27/19 A2979 RMK A01 T02720190  RH  061%=      5-min Rain = 0
KCO1 240502Z 14022KT 27/19 A2979 RMK A01 T02720190  RH  061%=      5-min Rain = 0
KCO1 240503Z 15024G31KT 27/19 A2979 RMK A01 T02720190  RH  061%=      5-min Rain = 0
KCO1 240504Z 14019G26KT 27/19 A2979 RMK A01 T02720190  RH  061%=      5-min Rain = 0
KCO1 240505Z 14024G31KT 27/19 A2979 RMK A01 T02720190  RH  061%=      5-min Rain = 0
KCO1 240506Z 14021KT 27/19 A2979 RMK A01 T02720190  RH  061%=      5-min Rain = 0
KCO1 240507Z 14024G29KT 27/19 A2979 RMK A01 T02710190  RH  061%=      5-min Rain = 0
KCO1 240508Z 14021G29KT 27/19 A2979 RMK A01 T02710190  RH  061%=      5-min Rain = 0
KCO1 240509Z 14027G33KT 27/19 A2979 RMK A01 T02720190  RH  061%=      5-min Rain = 0
KCO1 240510Z 14020G26KT 27/19 A2979 RMK A01 T02710189  RH  061%=      5-min Rain = 0
KCO1 240511Z 14022G28KT 27/19 A2979 RMK A01 T02720190  RH  061%=      5-min Rain = 0
KCO1 240512Z 14024G32KT 27/19 A2979 RMK A01 T02720190  RH  061%=      5-min Rain = 0
KCO1 240513Z 14020G28KT 27/19 A2979 RMK A01 T02720190  RH  061%=      5-min Rain = 0
KCO1 240514Z 14023G28KT 27/19 A298 RMK A01 T02720190  RH  061%=      5-min Rain = 0
KCO1 240515Z 15022G29KT 27/19 A2979 RMK A01 T02720190  RH  061%=      5-min Rain = 0
KCO1 240516Z 14022G27KT 27/19 A2979 RMK A01 T02720189  RH  061%=      5-min Rain = 0
KCO1 240517Z 14018G25KT 27/19 A298 RMK A01 T02720189  RH  061%=      5-min Rain = 0
KCO1 240518Z 15020G25KT 27/19 A298 RMK A01 T02720189  RH  061%=      5-min Rain = 0
KCO1 240519Z 15020KT 27/19 A298 RMK A01 T02720190  RH  061%=      5-min Rain = 0
KCO1 240520Z 15024G31KT 27/19 A298 RMK A01 T02720189  RH  061%=      5-min Rain = 0
KCO1 240521Z 15020G25KT 27/19 A298 RMK A01 T02720189  RH  061%=      5-min Rain = 0
KCO1 240522Z 15022KT 27/19 A298 RMK A01 T02720189  RH  060%=      5-min Rain = 0
KCO1 240523Z 15019KT 27/19 A298 RMK A01 T02720189  RH  060%=      5-min Rain = 0
KCO1 240524Z 15019KT 27/19 A298 RMK A01 T02720189  RH  060%=      5-min Rain = 0
KCO1 240525Z 15020KT 27/19 A298 RMK A01 T02720189  RH  061%=      5-min Rain = 0
KCO1 240526Z 15021G29KT 27/19 A298 RMK A01 T02720189  RH  061%=      5-min Rain = 0
KCO1 240527Z 15021G29KT 27/19 A298 RMK A01 T02720189  RH  061%=      5-min Rain = 0
KCO1 240528Z 15022KT 27/19 A298 RMK A01 T02720189  RH  060%=      5-min Rain = 0
KCO1 240529Z 14018G26KT 27/19 A298 RMK A01 T02720189  RH  060%=      5-min Rain = 0
KCO1 240530Z 15019G26KT 27/19 A298 RMK A01 T02720189  RH  060%=      5-min Rain = 0
KCO1 240531Z 15021G26KT 27/19 A298 RMK A01 T02720189  RH  060%=      5-min Rain = 0
KCO1 240532Z 15022G29KT 27/19 A298 RMK A01 T02720189  RH  060%=      5-min Rain = 0
KCO1 240533Z 15019KT 27/19 A298 RMK A01 T02720189  RH  060%=      5-min Rain = 0
KCO1 240534Z 15021G26KT 27/19 A2981 RMK A01 T02720189  RH  060%=      5-min Rain = 0
KCO1 240535Z 15019G25KT 27/19 A298 RMK A01 T02720189  RH  060%=      5-min Rain = 0
KCO1 240536Z 15020G28KT 27/19 A298 RMK A01 T02720189  RH  060%=      5-min Rain = 0
KCO1 240537Z 15020G29KT 27/19 A298 RMK A01 T02720189  RH  060%=      5-min Rain = 0
KCO1 240538Z 15021G29KT 27/19 A298 RMK A01 T02720188  RH  060%=      5-min Rain = 0
KCO1 240539Z 15019KT 27/19 A2981 RMK A01 T02720188  RH  060%=      5-min Rain = 0
KCO1 240540Z 15020G26KT 27/19 A298 RMK A01 T02720188  RH  060%=      5-min Rain = 0
KCO1 240541Z 15018G25KT 27/19 A2981 RMK A01 T02720188  RH  060%=      5-min Rain = 0
KCO1 240542Z 15018KT 27/19 A2981 RMK A01 T02720188  RH  060%=      5-min Rain = 0
KCO1 240543Z 15019G26KT 27/19 A2981 RMK A01 T02720188  RH  060%=      5-min Rain = 0
KCO1 240544Z 16019G24KT 27/19 A2981 RMK A01 T02720188  RH  060%=      5-min Rain = 0
KCO1 240545Z 16017KT 27/19 A2981 RMK A01 T02720188  RH  060%=      5-min Rain = 0
KCO1 240546Z 16018KT 27/19 A2981 RMK A01 T02720188  RH  060%=      5-min Rain = 0
KCO1 240547Z 16017G22KT 27/19 A2981 RMK A01 T02720188  RH  060%=      5-min Rain = 0
KCO1 240548Z 17017G22KT 27/19 A2982 RMK A01 T02720188  RH  060%=      5-min Rain = 0
KCO1 240549Z 17018KT 27/19 A2982 RMK A01 T02720188  RH  060%=      5-min Rain = 0
KCO1 240550Z 18017KT 27/19 A2982 RMK A01 T02720188  RH  060%=      5-min Rain = 0
KCO1 240551Z 18015G20KT 27/19 A2983 RMK A01 T02720188  RH  060%=      5-min Rain = 0
KCO1 240552Z 19016KT 27/19 A2983 RMK A01 T02710188  RH  060%=      5-min Rain = 0
KCO1 240553Z 20015KT 27/19 A2983 RMK A01 T02710188  RH  060%=      5-min Rain = 0
KCO1 240554Z 21016KT 27/19 A2983 RMK A01 T02710188  RH  061%=      5-min Rain = 0
KCO1 240555Z 20018KT 27/19 A2983 RMK A01 T02700188  RH  061%=      5-min Rain = 0
KCO1 240556Z 19015KT 27/19 A2983 RMK A01 T02700188  RH  061%=      5-min Rain = 0
KCO1 240557Z 19016KT 27/19 A2983 RMK A01 T02700188  RH  061%=      5-min Rain = 0
KCO1 240558Z 19015KT 27/19 A2983 RMK A01 T02700188  RH  061%=      5-min Rain = 0
KCO1 240559Z 19012KT 27/19 A2983 RMK A01 T02700188  RH  061%=      5-min Rain = 0
KCO1 240600Z 19012KT 27/19 A2983 RMK A01 T02690188  RH  061%=      5-min Rain = 0
KCO1 240601Z 19013KT 27/19 A2983 RMK A01 T02690188  RH  061%=      5-min Rain = 0
KCO1 240602Z 19011KT 27/19 A2983 RMK A01 T02680188  RH  062%=      5-min Rain = 0
KCO1 240603Z 19013KT 27/19 A2983 RMK A01 T02680188  RH  062%=      5-min Rain = 0
KCO1 240604Z 19013KT 27/19 A2983 RMK A01 T02680188  RH  062%=      5-min Rain = 0
KCO1 240605Z 19013KT 27/19 A2984 RMK A01 T02680188  RH  062%=      5-min Rain = 0
KCO1 240606Z 19010KT 27/19 A2984 RMK A01 T02680188  RH  062%=      5-min Rain = 0
KCO1 240607Z 19013KT 27/19 A2984 RMK A01 T02670188  RH  062%=      5-min Rain = 0
KCO1 240608Z 18013KT 27/19 A2983 RMK A01 T02670188  RH  062%=      5-min Rain = 0
KCO1 240609Z 19012KT 27/19 A2983 RMK A01 T02670188  RH  062%=      5-min Rain = 0
KCO1 240610Z 18013KT 27/19 A2983 RMK A01 T02670189  RH  062%=      5-min Rain = 0
KCO1 240611Z 19013KT 27/19 A2983 RMK A01 T02670189  RH  062%=      5-min Rain = 0
KCO1 240612Z 19010KT 27/19 A2983 RMK A01 T02670189  RH  062%=      5-min Rain = 0
KCO1 240613Z 18010KT 27/19 A2983 RMK A01 T02670188  RH  062%=      5-min Rain = 0
KCO1 240614Z 18010KT 27/19 A2983 RMK A01 T02660189  RH  062%=      5-min Rain = 0
KCO1 240615Z 18012KT 27/19 A2983 RMK A01 T02660189  RH  063%=      5-min Rain = 0
KCO1 240616Z 19012KT 27/19 A2984 RMK A01 T02660189  RH  063%=      5-min Rain = 0
KCO1 240617Z 18011KT 27/19 A2984 RMK A01 T02660189  RH  063%=      5-min Rain = 0
KCO1 240618Z 19011KT 27/19 A2984 RMK A01 T02660189  RH  062%=      5-min Rain = 0
KCO1 240619Z 18012KT 27/19 A2984 RMK A01 T02660189  RH  062%=      5-min Rain = 0
KCO1 240620Z 18012KT 27/19 A2984 RMK A01 T02660189  RH  063%=      5-min Rain = 0
KCO1 240621Z 19011KT 27/19 A2984 RMK A01 T02660189  RH  063%=      5-min Rain = 0
KCO1 240622Z 19012KT 27/19 A2984 RMK A01 T02660189  RH  063%=      5-min Rain = 0
KCO1 240623Z 18013G18KT 27/19 A2984 RMK A01 T02660189  RH  063%=      5-min Rain = 0
KCO1 240624Z 19011KT 27/19 A2984 RMK A01 T02670189  RH  062%=      5-min Rain = 0
KCO1 240625Z 19012KT 27/19 A2984 RMK A01 T02670189  RH  062%=      5-min Rain = 0
KCO1 240626Z 19009KT 27/19 A2984 RMK A01 T02670190  RH  062%=      5-min Rain = 0
KCO1 240627Z 19010KT 27/19 A2984 RMK A01 T02660190  RH  063%=      5-min Rain = 0
KCO1 240628Z 19009KT 27/19 A2984 RMK A01 T02660190  RH  063%=      5-min Rain = 0
KCO1 240629Z 19010KT 27/19 A2984 RMK A01 T02660190  RH  063%=      5-min Rain = 0
KCO1 240630Z 18009KT 27/19 A2984 RMK A01 T02660190  RH  063%=      5-min Rain = 0
KCO1 240631Z 18012KT 27/19 A2984 RMK A01 T02650189  RH  063%=      5-min Rain = 0
KCO1 240632Z 18012KT 27/19 A2984 RMK A01 T02650189  RH  063%=      5-min Rain = 0
KCO1 240633Z 18010KT 27/19 A2984 RMK A01 T02660189  RH  063%=      5-min Rain = 0
KCO1 240634Z 17011KT 27/19 A2984 RMK A01 T02660189  RH  063%=      5-min Rain = 0
KCO1 240635Z 17010KT 27/19 A2984 RMK A01 T02650189  RH  063%=      5-min Rain = 0
KCO1 240636Z 16009KT 27/19 A2984 RMK A01 T02650189  RH  063%=      5-min Rain = 0
KCO1 240637Z 16010KT 27/19 A2984 RMK A01 T02650189  RH  063%=      5-min Rain = 0
KCO1 240638Z 16013KT 26/19 A2984 RMK A01 T02640189  RH  063%=      5-min Rain = 0
KCO1 240639Z 17013KT 26/19 A2984 RMK A01 T02640188  RH  063%=      5-min Rain = 0
KCO1 240640Z 17012KT 27/19 A2984 RMK A01 T02650188  RH  063%=      5-min Rain = 0
KCO1 240641Z 17010KT 27/19 A2984 RMK A01 T02660189  RH  062%=      5-min Rain = 0
KCO1 240642Z 17011KT 27/19 A2984 RMK A01 T02660189  RH  062%=      5-min Rain = 0
KCO1 240643Z 17010KT 27/19 A2984 RMK A01 T02660189  RH  063%=      5-min Rain = 0
KCO1 240644Z 17009KT 27/19 A2985 RMK A01 T02660189  RH  063%=      5-min Rain = 0
KCO1 240645Z 17010KT 27/19 A2985 RMK A01 T02660189  RH  063%=      5-min Rain = 0
KCO1 240646Z 17009KT 27/19 A2985 RMK A01 T02650189  RH  063%=      5-min Rain = 0
KCO1 240647Z 17010KT 27/19 A2985 RMK A01 T02650189  RH  063%=      5-min Rain = 0
KCO1 240648Z 17011KT 27/19 A2985 RMK A01 T02650189  RH  063%=      5-min Rain = 0
KCO1 240649Z 17010KT 27/19 A2985 RMK A01 T02650188  RH  063%=      5-min Rain = 0
KCO1 240650Z 17010KT 27/19 A2985 RMK A01 T02650188  RH  063%=      5-min Rain = 0
KCO1 240651Z 17009KT 27/19 A2985 RMK A01 T02650189  RH  063%=      5-min Rain = 0
KCO1 240652Z 16010KT 27/19 A2985 RMK A01 T02650188  RH  063%=      5-min Rain = 0
KCO1 240653Z 17012KT 27/19 A2985 RMK A01 T02650189  RH  063%=      5-min Rain = 0
KCO1 240654Z 17010KT 27/19 A2985 RMK A01 T02650188  RH  063%=      5-min Rain = 0
KCO1 240655Z 17011KT 27/19 A2985 RMK A01 T02650188  RH  063%=      5-min Rain = 0
KCO1 240656Z 17011KT 27/19 A2985 RMK A01 T02650188  RH  063%=      5-min Rain = 0
KCO1 240657Z 17011KT 27/19 A2985 RMK A01 T02650188  RH  063%=      5-min Rain = 0
KCO1 240658Z 17011KT 27/19 A2985 RMK A01 T02650188  RH  063%=      5-min Rain = 0
KCO1 240659Z 16013KT 27/19 A2985 RMK A01 T02650188  RH  063%=      5-min Rain = 0
KCO1 240700Z 17012KT 27/19 A2985 RMK A01 T02650187  RH  062%=      5-min Rain = 0
KCO1 240701Z 17014KT 27/19 A2985 RMK A01 T02660187  RH  062%=      5-min Rain = 0
KCO1 240702Z 17013KT 27/19 A2985 RMK A01 T02660187  RH  062%=      5-min Rain = 0
KCO1 240703Z 17011KT 27/19 A2985 RMK A01 T02670187  RH  062%=      5-min Rain = 0
KCO1 240704Z 17012KT 27/19 A2985 RMK A01 T02670187  RH  062%=      5-min Rain = 0
KCO1 240705Z 17011KT 27/19 A2985 RMK A01 T02660187  RH  062%=      5-min Rain = 0
KCO1 240706Z 16009KT 27/19 A2985 RMK A01 T02660187  RH  062%=      5-min Rain = 0
KCO1 240707Z 16009KT 27/19 A2985 RMK A01 T02650187  RH  062%=      5-min Rain = 0
KCO1 240708Z 17010KT 26/19 A2985 RMK A01 T02640187  RH  063%=      5-min Rain = 0
KCO1 240709Z 16010KT 26/19 A2985 RMK A01 T02640187  RH  063%=      5-min Rain = 0
KCO1 240710Z 16009KT 26/19 A2985 RMK A01 T02640186  RH  062%=      5-min Rain = 0
KCO1 240711Z 16009KT 26/19 A2985 RMK A01 T02640186  RH  062%=      5-min Rain = 0
KCO1 240712Z 16008KT 26/19 A2985 RMK A01 T02640187  RH  062%=      5-min Rain = 0
KCO1 240713Z 16010KT 26/19 A2985 RMK A01 T02640187  RH  063%=      5-min Rain = 0
KCO1 240714Z 16010KT 26/19 A2985 RMK A01 T02640187  RH  063%=      5-min Rain = 0
KCO1 240715Z 16008KT 26/19 A2985 RMK A01 T02630187  RH  063%=      5-min Rain = 0
KCO1 240716Z 16009KT 26/19 A2985 RMK A01 T02630187  RH  063%=      5-min Rain = 0
KCO1 240717Z 17009KT 26/19 A2985 RMK A01 T02630187  RH  063%=      5-min Rain = 0
KCO1 240718Z 16010KT 26/19 A2985 RMK A01 T02640187  RH  063%=      5-min Rain = 0
KCO1 240719Z 16010KT 26/19 A2985 RMK A01 T02630187  RH  063%=      5-min Rain = 0
KCO1 240720Z 17010KT 26/19 A2985 RMK A01 T02630187  RH  063%=      5-min Rain = 0
KCO1 240721Z 16011KT 26/19 A2985 RMK A01 T02630187  RH  063%=      5-min Rain = 0
KCO1 240722Z 16011KT 26/19 A2985 RMK A01 T02630186  RH  063%=      5-min Rain = 0
KCO1 240723Z 16009KT 26/19 A2985 RMK A01 T02640187  RH  063%=      5-min Rain = 0
KCO1 240724Z 16009KT 26/19 A2985 RMK A01 T02630186  RH  063%=      5-min Rain = 0
KCO1 240725Z 16009KT 26/19 A2985 RMK A01 T02630187  RH  063%=      5-min Rain = 0
KCO1 240726Z 16009KT 26/19 A2985 RMK A01 T02630187  RH  063%=      5-min Rain = 0
KCO1 240727Z 16009KT 26/19 A2985 RMK A01 T02620186  RH  063%=      5-min Rain = 0
KCO1 240728Z 16008KT 26/19 A2985 RMK A01 T02620187  RH  063%=      5-min Rain = 0
KCO1 240729Z 16009KT 26/19 A2985 RMK A01 T02620186  RH  063%=      5-min Rain = 0
KCO1 240730Z 16009KT 26/19 A2985 RMK A01 T02620186  RH  063%=      5-min Rain = 0
KCO1 240731Z 16008KT 26/19 A2985 RMK A01 T02620187  RH  063%=      5-min Rain = 0
KCO1 240732Z 16008KT 26/19 A2985 RMK A01 T02620186  RH  063%=      5-min Rain = 0
KCO1 240733Z 16009KT 26/19 A2985 RMK A01 T02610186  RH  063%=      5-min Rain = 0
KCO1 240734Z 15008KT 26/19 A2985 RMK A01 T02610186  RH  063%=      5-min Rain = 0
KCO1 240735Z 16008KT 26/19 A2985 RMK A01 T02610186  RH  063%=      5-min Rain = 0
KCO1 240736Z 15008KT 26/19 A2985 RMK A01 T02610186  RH  063%=      5-min Rain = 0
KCO1 240737Z 15008KT 26/19 A2985 RMK A01 T02600186  RH  064%=      5-min Rain = 0
KCO1 240738Z 15011KT 26/19 A2985 RMK A01 T02600186  RH  064%=      5-min Rain = 0
KCO1 240739Z 15010KT 26/19 A2985 RMK A01 T02600186  RH  064%=      5-min Rain = 0
KCO1 240740Z 15010KT 26/19 A2985 RMK A01 T02610186  RH  063%=      5-min Rain = 0
KCO1 240741Z 16010KT 26/19 A2985 RMK A01 T02610186  RH  063%=      5-min Rain = 0
KCO1 240742Z 15010KT 26/19 A2985 RMK A01 T02610186  RH  063%=      5-min Rain = 0
KCO1 240743Z 15009KT 26/19 A2985 RMK A01 T02610186  RH  063%=      5-min Rain = 0
KCO1 240744Z 16009KT 26/19 A2985 RMK A01 T02610186  RH  063%=      5-min Rain = 0
KCO1 240745Z 16009KT 26/19 A2985 RMK A01 T02610186  RH  063%=      5-min Rain = 0
KCO1 240746Z 16010KT 26/19 A2985 RMK A01 T02610185  RH  063%=      5-min Rain = 0
KCO1 240747Z 16010KT 26/19 A2985 RMK A01 T02610185  RH  063%=      5-min Rain = 0
KCO1 240748Z 15008KT 26/19 A2985 RMK A01 T02610185  RH  063%=      5-min Rain = 0
KCO1 240749Z 15010KT 26/19 A2985 RMK A01 T02620186  RH  063%=      5-min Rain = 0
KCO1 240750Z 15010KT 26/19 A2984 RMK A01 T02620186  RH  063%=      5-min Rain = 0
KCO1 240751Z 15010KT 26/19 A2984 RMK A01 T02610185  RH  063%=      5-min Rain = 0
KCO1 240752Z 15012KT 26/19 A2985 RMK A01 T02610185  RH  063%=      5-min Rain = 0
KCO1 240753Z 16012KT 26/19 A2985 RMK A01 T02620185  RH  063%=      5-min Rain = 0
KCO1 240754Z 15009KT 26/19 A2985 RMK A01 T02620185  RH  063%=      5-min Rain = 0
KCO1 240755Z 15011KT 26/19 A2985 RMK A01 T02630186  RH  063%=      5-min Rain = 0
KCO1 240756Z 15011KT 26/19 A2985 RMK A01 T02620185  RH  062%=      5-min Rain = 0
KCO1 240757Z 15011KT 26/19 A2985 RMK A01 T02630185  RH  062%=      5-min Rain = 0
KCO1 240758Z 15011KT 26/19 A2985 RMK A01 T02620185  RH  063%=      5-min Rain = 0
KCO1 240759Z 15010KT 26/19 A2985 RMK A01 T02630186  RH  063%=      5-min Rain = 0
KCO1 240800Z 15011KT 26/19 A2985 RMK A01 T02620185  RH  062%=      5-min Rain = 0
KCO1 240801Z 15014KT 26/19 A2985 RMK A01 T02630185  RH  062%=      5-min Rain = 0
KCO1 240802Z 16010KT 26/19 A2985 RMK A01 T02630185  RH  062%=      5-min Rain = 0
KCO1 240803Z 16010KT 26/19 A2985 RMK A01 T02630185  RH  062%=      5-min Rain = 0
KCO1 240804Z 16010KT 26/19 A2985 RMK A01 T02630185  RH  062%=      5-min Rain = 0
KCO1 240805Z 16010KT 26/19 A2985 RMK A01 T02640185  RH  062%=      5-min Rain = 0
KCO1 240806Z 17010KT 26/19 A2985 RMK A01 T02640185  RH  062%=      5-min Rain = 0
KCO1 240807Z 17010KT 26/19 A2985 RMK A01 T02640185  RH  062%=      5-min Rain = 0
KCO1 240808Z 17010G15KT 26/19 A2985 RMK A01 T02640185  RH  062%=      5-min Rain = 0
KCO1 240809Z 17010KT 26/19 A2985 RMK A01 T02640186  RH  062%=      5-min Rain = 0
KCO1 240810Z 17009KT 26/19 A2985 RMK A01 T02640186  RH  062%=      5-min Rain = 0
KCO1 240811Z 17010KT 26/19 A2985 RMK A01 T02630186  RH  062%=      5-min Rain = 0
KCO1 240812Z 18010KT 26/19 A2985 RMK A01 T02630186  RH  062%=      5-min Rain = 0
KCO1 240813Z 18010KT 26/19 A2985 RMK A01 T02640186  RH  062%=      5-min Rain = 0
KCO1 240814Z 18010KT 26/19 A2985 RMK A01 T02640185  RH  062%=      5-min Rain = 0
KCO1 240815Z 18009KT 26/19 A2986 RMK A01 T02640185  RH  062%=      5-min Rain = 0
KCO1 240816Z 18010KT 26/19 A2986 RMK A01 T02640186  RH  062%=      5-min Rain = 0
KCO1 240817Z 18009KT 26/19 A2986 RMK A01 T02640186  RH  062%=      5-min Rain = 0
KCO1 240818Z 18010KT 26/19 A2986 RMK A01 T02640186  RH  062%=      5-min Rain = 0
KCO1 240819Z 17011KT 26/19 A2986 RMK A01 T02640186  RH  062%=      5-min Rain = 0
KCO1 240820Z 17009KT 26/19 A2986 RMK A01 T02640186  RH  062%=      5-min Rain = 0
KCO1 240821Z 17009KT 26/19 A2986 RMK A01 T02630186  RH  062%=      5-min Rain = 0
KCO1 240822Z 17008KT 26/19 A2986 RMK A01 T02630187  RH  063%=      5-min Rain = 0
KCO1 240823Z 17009KT 26/19 A2986 RMK A01 T02630186  RH  063%=      5-min Rain = 0
KCO1 240824Z 17009KT 26/19 A2986 RMK A01 T02630186  RH  063%=      5-min Rain = 0
KCO1 240825Z 17009KT 26/19 A2986 RMK A01 T02630186  RH  063%=      5-min Rain = 0
KCO1 240826Z 17008KT 26/19 A2986 RMK A01 T02630186  RH  063%=      5-min Rain = 0
KCO1 240827Z 17009KT 26/19 A2985 RMK A01 T02630186  RH  063%=      5-min Rain = 0
KCO1 240828Z 17009KT 26/19 A2985 RMK A01 T02620186  RH  063%=      5-min Rain = 0
KCO1 240829Z 17010KT 26/19 A2985 RMK A01 T02610186  RH  063%=      5-min Rain = 0
KCO1 240830Z 17008KT 26/19 A2986 RMK A01 T02610186  RH  063%=      5-min Rain = 0
KCO1 240831Z 17008KT 26/19 A2985 RMK A01 T02600185  RH  063%=      5-min Rain = 0
KCO1 240832Z 17007KT 26/19 A2985 RMK A01 T02600185  RH  063%=      5-min Rain = 0
KCO1 240833Z 16009KT 26/19 A2985 RMK A01 T02590185  RH  064%=      5-min Rain = 0
KCO1 240834Z 16010KT 26/18 A2985 RMK A01 T02580182  RH  063%=      5-min Rain = 0
KCO1 240835Z 17010KT 26/16 A2985 RMK A01 T02580164  RH  056%=      5-min Rain = 0
KCO1 240836Z 17012KT 26/16 A2985 RMK A01 T02590164  RH  056%=      5-min Rain = 0
KCO1 240837Z 17011KT 26/17 A2985 RMK A01 T02600169  RH  057%=      5-min Rain = 0
KCO1 240838Z 17010KT 26/17 A2985 RMK A01 T02610170  RH  057%=      5-min Rain = 0
KCO1 240839Z 18011KT 26/16 A2985 RMK A01 T02610164  RH  055%=      5-min Rain = 0
KCO1 240840Z 18009KT 26/16 A2985 RMK A01 T02610161  RH  054%=      5-min Rain = 0
KCO1 240841Z 18009KT 26/15 A2985 RMK A01 T02600151  RH  051%=      5-min Rain = 0
KCO1 240842Z 18009KT 26/15 A2985 RMK A01 T02600152  RH  051%=      5-min Rain = 0
KCO1 240843Z 18008KT 26/17 A2985 RMK A01 T02590166  RH  056%=      5-min Rain = 0
KCO1 240844Z 18006KT 26/17 A2985 RMK A01 T02580170  RH  058%=      5-min Rain = 0
KCO1 240845Z 18009KT 26/17 A2985 RMK A01 T02560169  RH  059%=      5-min Rain = 0
KCO1 240846Z 19008KT 25/16 A2985 RMK A01 T02540157  RH  055%=      5-min Rain = 0
KCO1 240847Z 18007KT 25/16 A2985 RMK A01 T02540158  RH  055%=      5-min Rain = 0
KCO1 240848Z 18006KT 25/16 A2985 RMK A01 T02540164  RH  057%=      5-min Rain = 0
KCO1 240849Z 17006KT 25/17 A2985 RMK A01 T02530168  RH  059%=      5-min Rain = 0
KCO1 240850Z 17008KT 25/17 A2985 RMK A01 T02510168  RH  060%=      5-min Rain = 0
KCO1 240851Z 18007KT 25/15 A2985 RMK A01 T02500154  RH  055%=      5-min Rain = 0
KCO1 240852Z 17009KT 25/15 A2985 RMK A01 T02500147  RH  053%=      5-min Rain = 0
KCO1 240853Z 18008KT 25/14 A2985 RMK A01 T02500139  RH  050%=      5-min Rain = 0
KCO1 240854Z 18009KT 25/13 A2985 RMK A01 T02500129  RH  047%=      5-min Rain = 0
KCO1 240855Z 18009KT 25/11 A2985 RMK A01 T02500114  RH  042%=      5-min Rain = 0
KCO1 240856Z 18008KT 25/11 A2985 RMK A01 T02510107  RH  040%=      5-min Rain = 0
KCO1 240857Z 18007KT 25/11 A2985 RMK A01 T02510108  RH  041%=      5-min Rain = 0
KCO1 240858Z 18010KT 25/11 A2985 RMK A01 T02510110  RH  041%=      5-min Rain = 0
KCO1 240859Z 18009KT 25/10 A2985 RMK A01 T02500098  RH  038%=      5-min Rain = 0
KCO1 240900Z 17009KT 25/11 A2985 RMK A01 T02510105  RH  040%=      5-min Rain = 0
KCO1 240901Z 17009KT 25/11 A2985 RMK A01 T02500110  RH  041%=      5-min Rain = 0
KCO1 240902Z 18008KT 25/11 A2985 RMK A01 T02480109  RH  042%=      5-min Rain = 0
KCO1 240903Z 18009KT 25/10 A2985 RMK A01 T02470101  RH  040%=      5-min Rain = 0
KCO1 240904Z 18010KT 25/09 A2985 RMK A01 T02470092  RH  037%=      5-min Rain = 0
KCO1 240905Z 18010KT 25/09 A2985 RMK A01 T02470085  RH  036%=      5-min Rain = 0
KCO1 240906Z 18010KT 25/08 A2985 RMK A01 T02460076  RH  034%=      5-min Rain = 0
KCO1 240907Z 18010KT 25/07 A2985 RMK A01 T02460069  RH  032%=      5-min Rain = 0
KCO1 240908Z 19010KT 25/06 A2985 RMK A01 T02470063  RH  031%=      5-min Rain = 0
KCO1 240909Z 19010KT 25/06 A2985 RMK A01 T02460060  RH  030%=      5-min Rain = 0
KCO1 240910Z 19010KT 25/06 A2985 RMK A01 T02460059  RH  030%=      5-min Rain = 0
KCO1 240911Z 19010KT 25/06 A2985 RMK A01 T02460058  RH  030%=      5-min Rain = 0
KCO1 240912Z 19010KT 25/05 A2985 RMK A01 T02450054  RH  029%=      5-min Rain = 0
KCO1 240913Z 19009KT 25/05 A2985 RMK A01 T02450053  RH  029%=      5-min Rain = 0
KCO1 240914Z 19009KT 25/05 A2985 RMK A01 T02450052  RH  029%=      5-min Rain = 0
KCO1 240915Z 19009KT 24/05 A2985 RMK A01 T02440050  RH  029%=      5-min Rain = 0
KCO1 240916Z 19008KT 24/05 A2985 RMK A01 T02430048  RH  028%=      5-min Rain = 0
KCO1 240917Z 19008KT 24/05 A2985 RMK A01 T02430045  RH  028%=      5-min Rain = 0
KCO1 240918Z 19008KT 24/04 A2986 RMK A01 T02430042  RH  027%=      5-min Rain = 0
KCO1 240919Z 19007KT 24/04 A2986 RMK A01 T02430039  RH  027%=      5-min Rain = 0
KCO1 240920Z 18007KT 24/04 A2986 RMK A01 T02420040  RH  027%=      5-min Rain = 0
KCO1 240921Z 18008KT 24/04 A2986 RMK A01 T02410040  RH  027%=      5-min Rain = 0
KCO1 240922Z 18009KT 24/04 A2986 RMK A01 T02410037  RH  027%=      5-min Rain = 0
KCO1 240923Z 17008KT 24/04 A2986 RMK A01 T02420038  RH  027%=      5-min Rain = 0
KCO1 240924Z 16007KT 24/04 A2986 RMK A01 T02420042  RH  027%=      5-min Rain = 0
KCO1 240925Z 17007KT 24/04 A2986 RMK A01 T02400042  RH  028%=      5-min Rain = 0
KCO1 240926Z 17007KT 24/04 A2986 RMK A01 T02380040  RH  027%=      5-min Rain = 0
KCO1 240927Z 17006KT 24/04 A2986 RMK A01 T02370040  RH  028%=      5-min Rain = 0
KCO1 240928Z 17007KT 24/04 A2986 RMK A01 T02370041  RH  028%=      5-min Rain = 0
KCO1 240929Z 18007KT 24/04 A2986 RMK A01 T02350039  RH  028%=      5-min Rain = 0
KCO1 240930Z 18007KT 23/04 A2986 RMK A01 T02340037  RH  028%=      5-min Rain = 0
KCO1 240931Z 17008KT 23/04 A2986 RMK A01 T02340036  RH  028%=      5-min Rain = 0
KCO1 240932Z 18008KT 23/04 A2986 RMK A01 T02330035  RH  027%=      5-min Rain = 0
KCO1 240933Z 17007KT 23/03 A2986 RMK A01 T02330031  RH  027%=      5-min Rain = 0
KCO1 240934Z 17007KT 23/03 A2986 RMK A01 T02340032  RH  027%=      5-min Rain = 0
KCO1 240935Z 18006KT 23/03 A2986 RMK A01 T02340032  RH  027%=      5-min Rain = 0
KCO1 240936Z 18006KT 23/03 A2986 RMK A01 T02330031  RH  027%=      5-min Rain = 0
KCO1 240937Z 17007KT 23/03 A2986 RMK A01 T02310032  RH  027%=      5-min Rain = 0
KCO1 240938Z 17008KT 23/03 A2986 RMK A01 T02310031  RH  027%=      5-min Rain = 0
KCO1 240939Z 17007KT 23/03 A2986 RMK A01 T02300031  RH  027%=      5-min Rain = 0
KCO1 240940Z 17007KT 23/03 A2986 RMK A01 T02300030  RH  027%=      5-min Rain = 0
KCO1 240941Z 17007KT 23/03 A2986 RMK A01 T02300032  RH  027%=      5-min Rain = 0
KCO1 240942Z 17007KT 23/03 A2986 RMK A01 T02300031  RH  027%=      5-min Rain = 0
KCO1 240943Z 18007KT 23/03 A2986 RMK A01 T02300029  RH  027%=      5-min Rain = 0
KCO1 240944Z 17008KT 23/03 A2986 RMK A01 T02320028  RH  026%=      5-min Rain = 0
KCO1 240945Z 17008KT 23/03 A2986 RMK A01 T02330027  RH  026%=      5-min Rain = 0
KCO1 240946Z 17008KT 23/03 A2986 RMK A01 T02330027  RH  026%=      5-min Rain = 0
KCO1 240947Z 17008KT 23/03 A2986 RMK A01 T02330029  RH  026%=      5-min Rain = 0
KCO1 240948Z 17007KT 23/03 A2986 RMK A01 T02320031  RH  027%=      5-min Rain = 0
KCO1 240949Z 17008KT 23/03 A2986 RMK A01 T02300032  RH  027%=      5-min Rain = 0
KCO1 240950Z 18008KT 23/03 A2986 RMK A01 T02290030  RH  027%=      5-min Rain = 0
KCO1 240951Z 18008KT 23/03 A2987 RMK A01 T02290030  RH  027%=      5-min Rain = 0
KCO1 240952Z 18007KT 23/03 A2987 RMK A01 T02290030  RH  027%=      5-min Rain = 0
KCO1 240953Z 19008KT 23/03 A2987 RMK A01 T02300031  RH  027%=      5-min Rain = 0
KCO1 240954Z 19008KT 23/03 A2987 RMK A01 T02310030  RH  027%=      5-min Rain = 0
KCO1 240955Z 19008KT 23/03 A2987 RMK A01 T02320032  RH  027%=      5-min Rain = 0
KCO1 240956Z 19007KT 23/03 A2987 RMK A01 T02320033  RH  027%=      5-min Rain = 0
KCO1 240957Z 20007KT 23/03 A2987 RMK A01 T02320033  RH  027%=      5-min Rain = 0
KCO1 240958Z 20007KT 23/04 A2987 RMK A01 T02320035  RH  028%=      5-min Rain = 0
KCO1 240959Z 20008KT 23/04 A2987 RMK A01 T02320036  RH  028%=      5-min Rain = 0
KCO1 241000Z 20007KT 23/04 A2987 RMK A01 T02320037  RH  028%=      5-min Rain = 0
KCO1 241001Z 20006KT 23/04 A2987 RMK A01 T02310038  RH  029%=      5-min Rain = 0
KCO1 241002Z 20006KT 23/04 A2987 RMK A01 T02300040  RH  029%=      5-min Rain = 0
KCO1 241003Z 20006KT 23/04 A2987 RMK A01 T02300041  RH  029%=      5-min Rain = 0
KCO1 241004Z 20006KT 23/04 A2987 RMK A01 T02300042  RH  029%=      5-min Rain = 0
KCO1 241005Z 20007KT 23/04 A2987 RMK A01 T02300043  RH  030%=      5-min Rain = 0
KCO1 241006Z 19007KT 23/04 A2987 RMK A01 T02290044  RH  030%=      5-min Rain = 0
KCO1 241007Z 19008KT 23/05 A2987 RMK A01 T02300045  RH  030%=      5-min Rain = 0
KCO1 241008Z 19008KT 23/05 A2987 RMK A01 T02310046  RH  030%=      5-min Rain = 0
KCO1 241009Z 19008KT 23/05 A2987 RMK A01 T02310047  RH  030%=      5-min Rain = 0
KCO1 241010Z 19007KT 23/05 A2987 RMK A01 T02320048  RH  030%=      5-min Rain = 0
KCO1 241011Z 19007KT 23/05 A2987 RMK A01 T02320048  RH  030%=      5-min Rain = 0
KCO1 241012Z 19007KT 23/05 A2987 RMK A01 T02320048  RH  030%=      5-min Rain = 0
KCO1 241013Z 19007KT 23/05 A2987 RMK A01 T02320048  RH  030%=      5-min Rain = 0
KCO1 241014Z 19008KT 23/05 A2987 RMK A01 T02310047  RH  030%=      5-min Rain = 0
KCO1 241015Z 18008KT 23/05 A2987 RMK A01 T02320048  RH  030%=      5-min Rain = 0
KCO1 241016Z 18008KT 23/05 A2987 RMK A01 T02320050  RH  031%=      5-min Rain = 0
KCO1 241017Z 18008KT 23/05 A2987 RMK A01 T02320052  RH  031%=      5-min Rain = 0
KCO1 241018Z 19007KT 23/05 A2987 RMK A01 T02320053  RH  031%=      5-min Rain = 0
KCO1 241019Z 19007KT 23/06 A2987 RMK A01 T02320055  RH  032%=      5-min Rain = 0
KCO1 241020Z 19007KT 23/06 A2987 RMK A01 T02320056  RH  032%=      5-min Rain = 0
KCO1 241021Z 19008KT 23/06 A2987 RMK A01 T02320057  RH  032%=      5-min Rain = 0
KCO1 241022Z 19009KT 23/06 A2987 RMK A01 T02320058  RH  032%=      5-min Rain = 0
KCO1 241023Z 19009KT 23/06 A2987 RMK A01 T02340058  RH  032%=      5-min Rain = 0
KCO1 241024Z 20007KT 24/06 A2987 RMK A01 T02350059  RH  032%=      5-min Rain = 0
KCO1 241025Z 20008KT 24/06 A2987 RMK A01 T02360061  RH  032%=      5-min Rain = 0
KCO1 241026Z 20008KT 24/06 A2988 RMK A01 T02370062  RH  032%=      5-min Rain = 0
KCO1 241027Z 20009KT 24/06 A2988 RMK A01 T02370063  RH  033%=      5-min Rain = 0
KCO1 241028Z 20009KT 24/06 A2988 RMK A01 T02380064  RH  033%=      5-min Rain = 0
KCO1 241029Z 20008KT 24/06 A2988 RMK A01 T02370062  RH  032%=      5-min Rain = 0
KCO1 241030Z 20009KT 24/06 A2988 RMK A01 T02380062  RH  032%=      5-min Rain = 0
KCO1 241031Z 20009KT 24/06 A2988 RMK A01 T02390063  RH  032%=      5-min Rain = 0
KCO1 241032Z 20008KT 24/07 A2988 RMK A01 T02400069  RH  033%=      5-min Rain = 0
KCO1 241033Z 20008KT 24/07 A2988 RMK A01 T02400071  RH  034%=      5-min Rain = 0
KCO1 241034Z 20008KT 24/07 A2988 RMK A01 T02400072  RH  034%=      5-min Rain = 0
KCO1 241035Z 20008KT 24/07 A2988 RMK A01 T02400071  RH  034%=      5-min Rain = 0
KCO1 241036Z 20008KT 24/07 A2988 RMK A01 T02410069  RH  033%=      5-min Rain = 0
KCO1 241037Z 20008KT 24/07 A2988 RMK A01 T02410068  RH  033%=      5-min Rain = 0
KCO1 241038Z 21007KT 24/07 A2988 RMK A01 T02410068  RH  033%=      5-min Rain = 0
KCO1 241039Z 20007KT 24/07 A2988 RMK A01 T02410070  RH  033%=      5-min Rain = 0
KCO1 241040Z 20007KT 24/07 A2988 RMK A01 T02410071  RH  034%=      5-min Rain = 0
KCO1 241041Z 20008KT 24/07 A2988 RMK A01 T02410072  RH  034%=      5-min Rain = 0
KCO1 241042Z 19010KT 24/07 A2988 RMK A01 T02410070  RH  034%=      5-min Rain = 0
KCO1 241043Z 19009KT 24/07 A2988 RMK A01 T02400068  RH  033%=      5-min Rain = 0
KCO1 241044Z 20009KT 24/07 A2988 RMK A01 T02410068  RH  033%=      5-min Rain = 0
KCO1 241045Z 20010KT 24/07 A2988 RMK A01 T02410067  RH  033%=      5-min Rain = 0
KCO1 241046Z 20008KT 24/07 A2988 RMK A01 T02420069  RH  033%=      5-min Rain = 0
KCO1 241047Z 20010KT 24/07 A2988 RMK A01 T02420072  RH  033%=      5-min Rain = 0
KCO1 241048Z 20009KT 24/07 A2988 RMK A01 T02430074  RH  034%=      5-min Rain = 0
KCO1 241049Z 20007KT 24/08 A2988 RMK A01 T02440076  RH  034%=      5-min Rain = 0
KCO1 241050Z 20008KT 24/08 A2988 RMK A01 T02440076  RH  034%=      5-min Rain = 0
KCO1 241051Z 20008KT 24/08 A2988 RMK A01 T02430075  RH  034%=      5-min Rain = 0
KCO1 241052Z 20007KT 24/08 A2988 RMK A01 T02430076  RH  034%=      5-min Rain = 0
KCO1 241053Z 19008KT 24/08 A2988 RMK A01 T02430077  RH  035%=      5-min Rain = 0
KCO1 241054Z 20009KT 24/08 A2989 RMK A01 T02420076  RH  035%=      5-min Rain = 0
KCO1 241055Z 20007KT 24/08 A2989 RMK A01 T02420076  RH  034%=      5-min Rain = 0
KCO1 241056Z 20007KT 24/08 A2989 RMK A01 T02420075  RH  034%=      5-min Rain = 0
KCO1 241057Z 20008KT 24/08 A2989 RMK A01 T02420076  RH  035%=      5-min Rain = 0
KCO1 241058Z 20007KT 24/08 A2989 RMK A01 T02410076  RH  035%=      5-min Rain = 0
KCO1 241059Z 20007KT 24/08 A2989 RMK A01 T02410076  RH  035%=      5-min Rain = 0
KCO1 241100Z 20007KT 24/08 A2989 RMK A01 T02410076  RH  035%=      5-min Rain = 0
KCO1 241101Z 20007KT 24/08 A2989 RMK A01 T02410077  RH  035%=      5-min Rain = 0
KCO1 241102Z 20008KT 24/08 A2989 RMK A01 T02400076  RH  035%=      5-min Rain = 0
KCO1 241103Z 19009KT 24/08 A2989 RMK A01 T02410076  RH  035%=      5-min Rain = 0
KCO1 241104Z 20008KT 24/08 A2989 RMK A01 T02410078  RH  035%=      5-min Rain = 0
KCO1 241105Z 19008KT 24/08 A2989 RMK A01 T02410079  RH  036%=      5-min Rain = 0
KCO1 241106Z 19008KT 24/08 A2989 RMK A01 T02420080  RH  036%=      5-min Rain = 0
KCO1 241107Z 19008KT 24/08 A2989 RMK A01 T02420081  RH  036%=      5-min Rain = 0
KCO1 241108Z 19009KT 24/08 A2989 RMK A01 T02420082  RH  036%=      5-min Rain = 0
KCO1 241109Z 19009KT 24/08 A2989 RMK A01 T02430083  RH  036%=      5-min Rain = 0
KCO1 241110Z 19009KT 24/08 A2989 RMK A01 T02440084  RH  036%=      5-min Rain = 0
KCO1 241111Z 19008KT 24/08 A2989 RMK A01 T02440084  RH  036%=      5-min Rain = 0
KCO1 241112Z 20007KT 24/09 A2989 RMK A01 T02440085  RH  036%=      5-min Rain = 0
KCO1 241113Z 20007KT 25/09 A2989 RMK A01 T02450085  RH  036%=      5-min Rain = 0
KCO1 241114Z 20007KT 25/08 A2989 RMK A01 T02450084  RH  036%=      5-min Rain = 0
KCO1 241115Z 20007KT 25/09 A2989 RMK A01 T02450085  RH  036%=      5-min Rain = 0
KCO1 241116Z 19007KT 25/09 A2989 RMK A01 T02460086  RH  036%=      5-min Rain = 0
KCO1 241117Z 19008KT 25/09 A2989 RMK A01 T02450087  RH  037%=      5-min Rain = 0
KCO1 241118Z 18008KT 25/09 A2989 RMK A01 T02460088  RH  037%=      5-min Rain = 0
KCO1 241119Z 18008KT 25/09 A2989 RMK A01 T02450087  RH  037%=      5-min Rain = 0
KCO1 241120Z 18008KT 25/09 A2989 RMK A01 T02460088  RH  037%=      5-min Rain = 0
KCO1 241121Z 18007KT 25/09 A2989 RMK A01 T02450089  RH  037%=      5-min Rain = 0
KCO1 241122Z 18007KT 25/09 A2989 RMK A01 T02450089  RH  037%=      5-min Rain = 0
KCO1 241123Z 19008KT 25/09 A2989 RMK A01 T02450090  RH  037%=      5-min Rain = 0
KCO1 241124Z 20007KT 25/09 A2989 RMK A01 T02450090  RH  037%=      5-min Rain = 0
KCO1 241125Z 20006KT 25/09 A2989 RMK A01 T02450091  RH  038%=      5-min Rain = 0
KCO1 241126Z 21007KT 25/09 A2989 RMK A01 T02450091  RH  038%=      5-min Rain = 0
KCO1 241127Z 20007KT 24/09 A2989 RMK A01 T02440092  RH  038%=      5-min Rain = 0
KCO1 241128Z 21008KT 24/09 A2989 RMK A01 T02440093  RH  038%=      5-min Rain = 0
KCO1 241129Z 21009KT 24/09 A2989 RMK A01 T02440092  RH  038%=      5-min Rain = 0
KCO1 241130Z 21008KT 24/09 A2989 RMK A01 T02440092  RH  038%=      5-min Rain = 0
KCO1 241131Z 21008KT 24/09 A2989 RMK A01 T02440092  RH  038%=      5-min Rain = 0
KCO1 241132Z 21008KT 24/09 A2989 RMK A01 T02440093  RH  038%=      5-min Rain = 0
KCO1 241133Z 20008KT 24/09 A2989 RMK A01 T02440093  RH  038%=      5-min Rain = 0
KCO1 241134Z 21008KT 24/09 A2989 RMK A01 T02440093  RH  038%=      5-min Rain = 0
KCO1 241135Z 21008KT 24/09 A2989 RMK A01 T02440094  RH  038%=      5-min Rain = 0
KCO1 241136Z 21008KT 24/09 A2989 RMK A01 T02440093  RH  038%=      5-min Rain = 0
KCO1 241137Z 21007KT 24/09 A2989 RMK A01 T02440093  RH  038%=      5-min Rain = 0
KCO1 241138Z 21007KT 24/09 A2989 RMK A01 T02440094  RH  038%=      5-min Rain = 0
KCO1 241139Z 21007KT 24/09 A2989 RMK A01 T02440093  RH  038%=      5-min Rain = 0
KCO1 241140Z 21007KT 24/09 A2989 RMK A01 T02430093  RH  038%=      5-min Rain = 0
KCO1 241141Z 21007KT 24/09 A2989 RMK A01 T02430094  RH  039%=      5-min Rain = 0
KCO1 241142Z 21006KT 24/09 A2989 RMK A01 T02430094  RH  039%=      5-min Rain = 0
KCO1 241143Z 21006KT 24/10 A2989 RMK A01 T02420095  RH  039%=      5-min Rain = 0
KCO1 241144Z 21006KT 24/10 A2989 RMK A01 T02410095  RH  039%=      5-min Rain = 0
KCO1 241145Z 22006KT 24/10 A2989 RMK A01 T02410095  RH  040%=      5-min Rain = 0
KCO1 241146Z 21006KT 24/10 A2989 RMK A01 T02400095  RH  040%=      5-min Rain = 0
KCO1 241147Z 21007KT 24/10 A2989 RMK A01 T02400095  RH  040%=      5-min Rain = 0
KCO1 241148Z 21007KT 24/09 A2989 RMK A01 T02400094  RH  040%=      5-min Rain = 0
KCO1 241149Z 21006KT 24/09 A2989 RMK A01 T02400094  RH  040%=      5-min Rain = 0
KCO1 241150Z 22006KT 24/10 A2989 RMK A01 T02400095  RH  040%=      5-min Rain = 0
KCO1 241151Z 21006KT 24/10 A2989 RMK A01 T02400095  RH  040%=      5-min Rain = 0
KCO1 241152Z 22006KT 24/10 A2989 RMK A01 T02390095  RH  040%=      5-min Rain = 0
KCO1 241153Z 21006KT 24/10 A2989 RMK A01 T02380095  RH  040%=      5-min Rain = 0
KCO1 241154Z 21006KT 24/09 A2989 RMK A01 T02370094  RH  040%=      5-min Rain = 0
KCO1 241155Z 21006KT 24/09 A2989 RMK A01 T02370094  RH  040%=      5-min Rain = 0
KCO1 241156Z 21006KT 24/09 A2989 RMK A01 T02370094  RH  040%=      5-min Rain = 0
KCO1 241157Z 21006KT 24/10 A299 RMK A01 T02370095  RH  040%=      5-min Rain = 0
KCO1 241158Z 21006KT 24/10 A299 RMK A01 T02360095  RH  041%=      5-min Rain = 0
KCO1 241159Z 21007KT 24/10 A299 RMK A01 T02360095  RH  041%=      5-min Rain = 0
KCO1 241200Z 22007KT 24/10 A299 RMK A01 T02360095  RH  041%=      5-min Rain = 0
KCO1 241201Z 22007KT 24/10 A299 RMK A01 T02360096  RH  041%=      5-min Rain = 0
KCO1 241202Z 21007KT 24/10 A299 RMK A01 T02360096  RH  041%=      5-min Rain = 0
KCO1 241203Z 21006KT 24/10 A299 RMK A01 T02360097  RH  041%=      5-min Rain = 0
KCO1 241204Z 21007KT 24/10 A299 RMK A01 T02350097  RH  041%=      5-min Rain = 0
KCO1 241205Z 21007KT 24/10 A299 RMK A01 T02350097  RH  042%=      5-min Rain = 0
KCO1 241206Z 21006KT 23/10 A299 RMK A01 T02340098  RH  042%=      5-min Rain = 0
KCO1 241207Z 21007KT 23/10 A299 RMK A01 T02330098  RH  042%=      5-min Rain = 0
KCO1 241208Z 21007KT 23/10 A299 RMK A01 T02330098  RH  042%=      5-min Rain = 0
KCO1 241209Z 20006KT 23/10 A299 RMK A01 T02330099  RH  043%=      5-min Rain = 0
KCO1 241210Z 20006KT 23/10 A299 RMK A01 T02320099  RH  043%=      5-min Rain = 0
KCO1 241211Z 20006KT 23/10 A299 RMK A01 T02310099  RH  043%=      5-min Rain = 0
KCO1 241212Z 20007KT 23/10 A299 RMK A01 T02310099  RH  043%=      5-min Rain = 0
KCO1 241213Z 20007KT 23/10 A299 RMK A01 T02300100  RH  044%=      5-min Rain = 0
KCO1 241214Z 20006KT 23/10 A299 RMK A01 T02290100  RH  044%=      5-min Rain = 0
KCO1 241215Z 20006KT 23/10 A299 RMK A01 T02290100  RH  044%=      5-min Rain = 0
KCO1 241216Z 20006KT 23/10 A299 RMK A01 T02280100  RH  044%=      5-min Rain = 0
KCO1 241217Z 20006KT 23/10 A299 RMK A01 T02280099  RH  044%=      5-min Rain = 0
KCO1 241218Z 20006KT 23/10 A299 RMK A01 T02280098  RH  044%=      5-min Rain = 0
KCO1 241219Z 20007KT 23/10 A299 RMK A01 T02280100  RH  044%=      5-min Rain = 0
KCO1 241220Z 20006KT 23/10 A299 RMK A01 T02280100  RH  044%=      5-min Rain = 0
KCO1 241221Z 20005KT 23/10 A299 RMK A01 T02270101  RH  045%=      5-min Rain = 0
KCO1 241222Z 20005KT 23/10 A299 RMK A01 T02270102  RH  045%=      5-min Rain = 0
KCO1 241223Z 21005KT 23/10 A299 RMK A01 T02250102  RH  046%=      5-min Rain = 0
KCO1 241224Z 20005KT 23/10 A299 RMK A01 T02250102  RH  046%=      5-min Rain = 0
KCO1 241225Z 21004KT 23/10 A299 RMK A01 T02250103  RH  046%=      5-min Rain = 0
KCO1 241226Z 21005KT 22/10 A299 RMK A01 T02240103  RH  046%=      5-min Rain = 0
KCO1 241227Z 21006KT 22/10 A299 RMK A01 T02240101  RH  046%=      5-min Rain = 0
KCO1 241228Z 21005KT 23/10 A299 RMK A01 T02250102  RH  046%=      5-min Rain = 0
KCO1 241229Z 21004KT 23/10 A299 RMK A01 T02250102  RH  046%=      5-min Rain = 0
KCO1 241230Z 22004KT 23/10 A299 RMK A01 T02250104  RH  046%=      5-min Rain = 0
KCO1 241231Z 22005KT 23/11 A2991 RMK A01 T02250105  RH  046%=      5-min Rain = 0
KCO1 241232Z 22004KT 23/10 A2991 RMK A01 T02250104  RH  046%=      5-min Rain = 0
KCO1 241233Z 24003KT 22/11 A2991 RMK A01 T02240105  RH  047%=      5-min Rain = 0
KCO1 241234Z 24004KT 22/11 A2991 RMK A01 T02240105  RH  047%=      5-min Rain = 0
KCO1 241235Z 25004KT 22/10 A2991 RMK A01 T02240104  RH  047%=      5-min Rain = 0
KCO1 241236Z 24005KT 22/10 A2991 RMK A01 T02230102  RH  046%=      5-min Rain = 0
KCO1 241237Z 24005KT 22/10 A2991 RMK A01 T02240100  RH  045%=      5-min Rain = 0
KCO1 241238Z 24005KT 22/10 A2991 RMK A01 T02240098  RH  045%=      5-min Rain = 0
KCO1 241239Z 23004KT 23/10 A2991 RMK A01 T02250098  RH  044%=      5-min Rain = 0
KCO1 241240Z 24004KT 23/09 A2991 RMK A01 T02260094  RH  043%=      5-min Rain = 0
KCO1 241241Z 24004KT 23/09 A2991 RMK A01 T02270093  RH  043%=      5-min Rain = 0
KCO1 241242Z 24004KT 23/09 A2991 RMK A01 T02290092  RH  042%=      5-min Rain = 0
KCO1 241243Z 23004KT 23/09 A2991 RMK A01 T02300092  RH  041%=      5-min Rain = 0
KCO1 241244Z 23004KT 23/09 A2991 RMK A01 T02310090  RH  041%=      5-min Rain = 0
KCO1 241245Z 23004KT 23/09 A2991 RMK A01 T02310090  RH  041%=      5-min Rain = 0
KCO1 241246Z 23005KT 23/09 A2991 RMK A01 T02320089  RH  040%=      5-min Rain = 0
KCO1 241247Z 23007KT 23/09 A2991 RMK A01 T02320085  RH  039%=      5-min Rain = 0
KCO1 241248Z 23005KT 23/08 A2991 RMK A01 T02330082  RH  038%=      5-min Rain = 0
KCO1 241249Z 24004KT 23/08 A2991 RMK A01 T02340084  RH  038%=      5-min Rain = 0
KCO1 241250Z 23005KT 23/08 A2991 RMK A01 T02340084  RH  038%=      5-min Rain = 0
KCO1 241251Z 23005KT 24/09 A2991 RMK A01 T02350086  RH  039%=      5-min Rain = 0
KCO1 241252Z 24004KT 24/08 A2991 RMK A01 T02350084  RH  038%=      5-min Rain = 0
KCO1 241253Z 23005KT 24/08 A2991 RMK A01 T02350084  RH  038%=      5-min Rain = 0
KCO1 241254Z 23005KT 24/08 A2992 RMK A01 T02350083  RH  038%=      5-min Rain = 0
KCO1 241255Z 22004KT 24/08 A2992 RMK A01 T02350084  RH  038%=      5-min Rain = 0
KCO1 241256Z 22005KT 24/08 A2992 RMK A01 T02350084  RH  038%=      5-min Rain = 0
KCO1 241257Z 22006KT 24/08 A2992 RMK A01 T02360082  RH  037%=      5-min Rain = 0
KCO1 241258Z 22006KT 24/08 A2992 RMK A01 T02360082  RH  037%=      5-min Rain = 0
KCO1 241259Z 22006KT 24/08 A2992 RMK A01 T02360083  RH  038%=      5-min Rain = 0
KCO1 241300Z 22006KT 24/08 A2992 RMK A01 T02360083  RH  038%=      5-min Rain = 0
KCO1 241301Z 22006KT 24/08 A2992 RMK A01 T02360081  RH  037%=      5-min Rain = 0
KCO1 241302Z 22007KT 24/08 A2992 RMK A01 T02360081  RH  037%=      5-min Rain = 0
KCO1 241303Z 21006KT 24/08 A2992 RMK A01 T02370079  RH  037%=      5-min Rain = 0
KCO1 241304Z 21006KT 24/08 A2992 RMK A01 T02370079  RH  036%=      5-min Rain = 0
KCO1 241305Z 21006KT 24/08 A2992 RMK A01 T02380081  RH  037%=      5-min Rain = 0
KCO1 241306Z 21006KT 24/08 A2992 RMK A01 T02380082  RH  037%=      5-min Rain = 0
KCO1 241307Z 22007KT 24/08 A2992 RMK A01 T02380081  RH  037%=      5-min Rain = 0
KCO1 241308Z 21007KT 24/08 A2992 RMK A01 T02380080  RH  036%=      5-min Rain = 0
KCO1 241309Z 22006KT 24/08 A2992 RMK A01 T02380079  RH  036%=      5-min Rain = 0
KCO1 241310Z 21005KT 24/08 A2992 RMK A01 T02380080  RH  036%=      5-min Rain = 0
KCO1 241311Z 21005KT 24/08 A2992 RMK A01 T02390078  RH  036%=      5-min Rain = 0
KCO1 241312Z 22006KT 24/08 A2992 RMK A01 T02390077  RH  035%=      5-min Rain = 0
KCO1 241313Z 21005KT 24/07 A2992 RMK A01 T02400074  RH  035%=      5-min Rain = 0
KCO1 241314Z 22005KT 24/08 A2992 RMK A01 T02400075  RH  035%=      5-min Rain = 0
KCO1 241315Z 22004KT 24/08 A2992 RMK A01 T02410076  RH  035%=      5-min Rain = 0
KCO1 241316Z 22004KT 24/08 A2992 RMK A01 T02400075  RH  035%=      5-min Rain = 0
KCO1 241317Z 22005KT 24/08 A2992 RMK A01 T02400076  RH  035%=      5-min Rain = 0
KCO1 241318Z 22004KT 24/08 A2992 RMK A01 T02410077  RH  035%=      5-min Rain = 0
KCO1 241319Z 23005KT 24/08 A2992 RMK A01 T02410077  RH  035%=      5-min Rain = 0
KCO1 241320Z 23003KT 24/07 A2992 RMK A01 T02410074  RH  034%=      5-min Rain = 0
KCO1 241321Z 24004KT 24/08 A2992 RMK A01 T02420078  RH  035%=      5-min Rain = 0
KCO1 241322Z 24003KT 24/08 A2992 RMK A01 T02430077  RH  035%=      5-min Rain = 0
KCO1 241323Z 23005KT 24/08 A2992 RMK A01 T02430076  RH  034%=      5-min Rain = 0
KCO1 241324Z 23005KT 24/07 A2993 RMK A01 T02430072  RH  033%=      5-min Rain = 0
KCO1 241325Z 24004KT 24/07 A2993 RMK A01 T02430071  RH  033%=      5-min Rain = 0
KCO1 241326Z 23004KT 24/07 A2993 RMK A01 T02430073  RH  034%=      5-min Rain = 0
KCO1 241327Z 23004KT 24/08 A2993 RMK A01 T02430075  RH  034%=      5-min Rain = 0
KCO1 241328Z 23003KT 24/08 A2993 RMK A01 T02440075  RH  034%=      5-min Rain = 0
KCO1 241329Z 23003KT 24/08 A2993 RMK A01 T02440077  RH  034%=      5-min Rain = 0
KCO1 241330Z 22005KT 25/08 A2993 RMK A01 T02450075  RH  034%=      5-min Rain = 0
KCO1 241331Z 21005KT 25/07 A2993 RMK A01 T02450069  RH  032%=      5-min Rain = 0
KCO1 241332Z 22006KT 24/07 A2993 RMK A01 T02440065  RH  032%=      5-min Rain = 0
KCO1 241333Z 22005KT 25/06 A2993 RMK A01 T02450063  RH  031%=      5-min Rain = 0
KCO1 241334Z 22005KT 25/06 A2993 RMK A01 T02450061  RH  031%=      5-min Rain = 0
KCO1 241335Z 22006KT 25/06 A2993 RMK A01 T02460060  RH  030%=      5-min Rain = 0
KCO1 241336Z 22006KT 25/06 A2993 RMK A01 T02460061  RH  030%=      5-min Rain = 0
KCO1 241337Z 23005KT 25/06 A2993 RMK A01 T02470063  RH  031%=      5-min Rain = 0
KCO1 241338Z 24004KT 25/07 A2993 RMK A01 T02470067  RH  031%=      5-min Rain = 0
KCO1 241339Z 25005KT 25/06 A2993 RMK A01 T02480063  RH  031%=      5-min Rain = 0
KCO1 241340Z 25007KT 25/05 A2993 RMK A01 T02470054  RH  029%=      5-min Rain = 0
KCO1 241341Z 25006KT 25/05 A2993 RMK A01 T02480049  RH  028%=      5-min Rain = 0
KCO1 241342Z 25006KT 25/05 A2993 RMK A01 T02480048  RH  028%=      5-min Rain = 0
KCO1 241343Z 25006KT 25/04 A2993 RMK A01 T02480043  RH  027%=      5-min Rain = 0
KCO1 241344Z 25006KT 25/05 A2993 RMK A01 T02480046  RH  027%=      5-min Rain = 0
KCO1 241345Z 25006KT 25/04 A2993 RMK A01 T02470043  RH  027%=      5-min Rain = 0
KCO1 241346Z 25007KT 25/04 A2993 RMK A01 T02480044  RH  027%=      5-min Rain = 0
KCO1 241347Z 25007KT 25/04 A2993 RMK A01 T02480043  RH  027%=      5-min Rain = 0
KCO1 241348Z 26007KT 25/05 A2993 RMK A01 T02480045  RH  027%=      5-min Rain = 0
KCO1 241349Z 25006KT 25/05 A2993 RMK A01 T02490046  RH  027%=      5-min Rain = 0
KCO1 241350Z 25007KT 25/04 A2993 RMK A01 T02490042  RH  026%=      5-min Rain = 0
KCO1 241351Z 25005KT 25/05 A2993 RMK A01 T02500048  RH  027%=      5-min Rain = 0
KCO1 241352Z 25006KT 25/05 A2993 RMK A01 T02510047  RH  027%=      5-min Rain = 0
KCO1 241353Z 24007KT 25/05 A2993 RMK A01 T02510048  RH  027%=      5-min Rain = 0
KCO1 241354Z 25006KT 25/05 A2993 RMK A01 T02510046  RH  027%=      5-min Rain = 0
KCO1 241355Z 24005KT 25/05 A2993 RMK A01 T02510047  RH  027%=      5-min Rain = 0
KCO1 241356Z 24005KT 25/05 A2993 RMK A01 T02510046  RH  027%=      5-min Rain = 0
KCO1 241357Z 24007KT 25/04 A2993 RMK A01 T02510042  RH  026%=      5-min Rain = 0
KCO1 241358Z 24006KT 25/05 A2993 RMK A01 T02510046  RH  027%=      5-min Rain = 0
KCO1 241359Z 24005KT 25/04 A2993 RMK A01 T02510041  RH  026%=      5-min Rain = 0
KCO1 241400Z 24005KT 25/04 A2993 RMK A01 T02520044  RH  026%=      5-min Rain = 0
KCO1 241401Z 24005KT 25/04 A2993 RMK A01 T02520042  RH  026%=      5-min Rain = 0
KCO1 241402Z 24004KT 25/04 A2993 RMK A01 T02530042  RH  026%=      5-min Rain = 0
KCO1 241403Z 25005KT 25/04 A2993 RMK A01 T02530042  RH  025%=      5-min Rain = 0
KCO1 241404Z 23005KT 25/04 A2993 RMK A01 T02530043  RH  026%=      5-min Rain = 0
KCO1 241405Z 22005KT 25/04 A2993 RMK A01 T02540043  RH  026%=      5-min Rain = 0
KCO1 241406Z 22007KT 26/04 A2993 RMK A01 T02550040  RH  025%=      5-min Rain = 0
KCO1 241407Z 22007KT 26/04 A2993 RMK A01 T02550037  RH  024%=      5-min Rain = 0
KCO1 241408Z 23007KT 26/04 A2993 RMK A01 T02550036  RH  024%=      5-min Rain = 0
KCO1 241409Z 21007KT 26/04 A2993 RMK A01 T02550038  RH  024%=      5-min Rain = 0
KCO1 241410Z 21007KT 26/04 A2993 RMK A01 T02560036  RH  024%=      5-min Rain = 0
KCO1 241411Z 21008KT 26/04 A2993 RMK A01 T02560035  RH  024%=      5-min Rain = 0
KCO1 241412Z 22008KT 26/04 A2993 RMK A01 T02570035  RH  024%=      5-min Rain = 0
KCO1 241413Z 23008KT 26/04 A2993 RMK A01 T02570035  RH  024%=      5-min Rain = 0
KCO1 241414Z 23008KT 26/03 A2993 RMK A01 T02560034  RH  024%=      5-min Rain = 0
KCO1 241415Z 22007KT 26/03 A2993 RMK A01 T02560034  RH  024%=      5-min Rain = 0
KCO1 241416Z 23006KT 26/04 A2993 RMK A01 T02560038  RH  024%=      5-min Rain = 0
KCO1 241417Z 22008KT 26/04 A2993 RMK A01 T02570044  RH  025%=      5-min Rain = 0
KCO1 241418Z 23007KT 26/04 A2993 RMK A01 T02580039  RH  024%=      5-min Rain = 0
KCO1 241419Z 23007KT 26/04 A2993 RMK A01 T02580041  RH  025%=      5-min Rain = 0
KCO1 241420Z 23008KT 26/04 A2993 RMK A01 T02580042  RH  025%=      5-min Rain = 0
KCO1 241421Z 23007KT 26/04 A2993 RMK A01 T02570040  RH  025%=      5-min Rain = 0
KCO1 241422Z 23007KT 26/04 A2993 RMK A01 T02560040  RH  025%=      5-min Rain = 0
KCO1 241423Z 23008KT 26/04 A2993 RMK A01 T02560041  RH  025%=      5-min Rain = 0
KCO1 241424Z 23008KT 26/04 A2994 RMK A01 T02550037  RH  024%=      5-min Rain = 0
KCO1 241425Z 23008KT 25/04 A2994 RMK A01 T02540037  RH  025%=      5-min Rain = 0
KCO1 241426Z 23008KT 25/03 A2994 RMK A01 T02530034  RH  024%=      5-min Rain = 0
KCO1 241427Z 23008KT 25/04 A2994 RMK A01 T02530035  RH  024%=      5-min Rain = 0
KCO1 241428Z 23009KT 25/04 A2994 RMK A01 T02530035  RH  024%=      5-min Rain = 0
KCO1 241429Z 23007KT 25/04 A2994 RMK A01 T02530038  RH  025%=      5-min Rain = 0
KCO1 241430Z 23007KT 25/04 A2994 RMK A01 T02530040  RH  025%=      5-min Rain = 0
KCO1 241431Z 23008KT 25/04 A2994 RMK A01 T02530042  RH  026%=      5-min Rain = 0
KCO1 241432Z 23007KT 25/04 A2994 RMK A01 T02540041  RH  025%=      5-min Rain = 0
KCO1 241433Z 23008KT 25/04 A2994 RMK A01 T02540037  RH  025%=      5-min Rain = 0
KCO1 241434Z 22007KT 25/04 A2994 RMK A01 T02540036  RH  024%=      5-min Rain = 0
KCO1 241435Z 22007KT 25/04 A2994 RMK A01 T02540039  RH  025%=      5-min Rain = 0
KCO1 241436Z 23006KT 26/04 A2994 RMK A01 T02550040  RH  025%=      5-min Rain = 0
KCO1 241437Z 23007KT 26/04 A2994 RMK A01 T02560038  RH  024%=      5-min Rain = 0
KCO1 241438Z 23007KT 26/04 A2994 RMK A01 T02560038  RH  024%=      5-min Rain = 0
KCO1 241439Z 23007KT 26/04 A2994 RMK A01 T02560038  RH  025%=      5-min Rain = 0
KCO1 241440Z 23007KT 26/04 A2994 RMK A01 T02550039  RH  025%=      5-min Rain = 0
KCO1 241441Z 23007KT 26/04 A2994 RMK A01 T02550039  RH  025%=      5-min Rain = 0
KCO1 241442Z 23007KT 26/04 A2994 RMK A01 T02560037  RH  024%=      5-min Rain = 0
KCO1 241443Z 22007KT 26/04 A2994 RMK A01 T02550038  RH  024%=      5-min Rain = 0
KCO1 241444Z 22007KT 26/04 A2994 RMK A01 T02560040  RH  025%=      5-min Rain = 0
KCO1 241445Z 22007KT 26/04 A2994 RMK A01 T02570039  RH  024%=      5-min Rain = 0
KCO1 241446Z 23005KT 26/04 A2994 RMK A01 T02580040  RH  025%=      5-min Rain = 0
KCO1 241447Z 23004KT 26/05 A2994 RMK A01 T02590049  RH  026%=      5-min Rain = 0
KCO1 241448Z 22007KT 26/05 A2994 RMK A01 T02610049  RH  026%=      5-min Rain = 0
KCO1 241449Z 23006KT 26/04 A2993 RMK A01 T02620041  RH  024%=      5-min Rain = 0
KCO1 241450Z 22006KT 26/04 A2993 RMK A01 T02620042  RH  024%=      5-min Rain = 0
KCO1 241451Z 21005KT 26/05 A2993 RMK A01 T02620046  RH  025%=      5-min Rain = 0
KCO1 241452Z 21005KT 26/05 A2993 RMK A01 T02640045  RH  024%=      5-min Rain = 0
KCO1 241453Z 21006KT 27/05 A2994 RMK A01 T02650050  RH  025%=      5-min Rain = 0
KCO1 241454Z 21007KT 27/05 A2994 RMK A01 T02670049  RH  025%=      5-min Rain = 0
KCO1 241455Z 21008KT 27/05 A2994 RMK A01 T02680050  RH  025%=      5-min Rain = 0
KCO1 241456Z 22006KT 27/05 A2994 RMK A01 T02680050  RH  025%=      5-min Rain = 0
KCO1 241457Z 20007KT 27/06 A2994 RMK A01 T02680055  RH  025%=      5-min Rain = 0
KCO1 241458Z 21007KT 27/05 A2993 RMK A01 T02690051  RH  025%=      5-min Rain = 0
KCO1 241459Z 22006KT 27/06 A2994 RMK A01 T02690056  RH  026%=      5-min Rain = 0
KCO1 241500Z 21006KT 27/06 A2994 RMK A01 T02690056  RH  026%=      5-min Rain = 0
KCO1 241501Z 21007KT 27/06 A2994 RMK A01 T02700056  RH  026%=      5-min Rain = 0
KCO1 241502Z 21006KT 27/05 A2994 RMK A01 T02700054  RH  025%=      5-min Rain = 0
KCO1 241503Z 21007KT 27/05 A2993 RMK A01 T02700052  RH  025%=      5-min Rain = 0
KCO1 241504Z 20006KT 27/05 A2993 RMK A01 T02700053  RH  025%=      5-min Rain = 0
KCO1 241505Z 21005KT 27/05 A2993 RMK A01 T02690052  RH  025%=      5-min Rain = 0
KCO1 241506Z 22005KT 27/06 A2993 RMK A01 T02700055  RH  025%=      5-min Rain = 0
KCO1 241507Z 21005KT 27/05 A2993 RMK A01 T02700051  RH  025%=      5-min Rain = 0
KCO1 241508Z 22005KT 27/05 A2993 RMK A01 T02700052  RH  025%=      5-min Rain = 0
KCO1 241509Z 22006KT 27/06 A2993 RMK A01 T02710057  RH  025%=      5-min Rain = 0
KCO1 241510Z 23007KT 27/06 A2993 RMK A01 T02730059  RH  026%=      5-min Rain = 0
KCO1 241511Z 21006KT 27/06 A2993 RMK A01 T02740059  RH  025%=      5-min Rain = 0
KCO1 241512Z 21006KT 27/06 A2994 RMK A01 T02740055  RH  025%=      5-min Rain = 0
KCO1 241513Z 21005KT 28/06 A2994 RMK A01 T02750055  RH  025%=      5-min Rain = 0
KCO1 241514Z 25006KT 28/05 A2994 RMK A01 T02750052  RH  024%=      5-min Rain = 0
KCO1 241515Z 23005KT 28/06 A2994 RMK A01 T02750062  RH  026%=      5-min Rain = 0
KCO1 241516Z 25006KT 28/05 A2993 RMK A01 T02760049  RH  023%=      5-min Rain = 0
KCO1 241517Z 25007KT 28/04 A2993 RMK A01 T02750043  RH  023%=      5-min Rain = 0
KCO1 241518Z 25006KT 27/04 A2993 RMK A01 T02730042  RH  023%=      5-min Rain = 0
KCO1 241519Z 24005KT 27/04 A2993 RMK A01 T02720042  RH  023%=      5-min Rain = 0
KCO1 241520Z 25005KT 27/04 A2993 RMK A01 T02720041  RH  023%=      5-min Rain = 0
KCO1 241521Z 28006KT 27/04 A2994 RMK A01 T02710037  RH  022%=      5-min Rain = 0
KCO1 241522Z 27006KT 27/04 A2994 RMK A01 T02710040  RH  023%=      5-min Rain = 0
KCO1 241523Z 25005KT 27/04 A2994 RMK A01 T02700042  RH  023%=      5-min Rain = 0
KCO1 241524Z 26004KT 27/05 A2994 RMK A01 T02720046  RH  023%=      5-min Rain = 0
KCO1 241525Z 27006KT 27/04 A2994 RMK A01 T02740043  RH  023%=      5-min Rain = 0
KCO1 241526Z 27007KT 27/04 A2994 RMK A01 T02740042  RH  023%=      5-min Rain = 0
KCO1 241527Z 26007KT 27/04 A2994 RMK A01 T02740039  RH  022%=      5-min Rain = 0
KCO1 241528Z 25006KT 27/04 A2994 RMK A01 T02720042  RH  023%=      5-min Rain = 0
KCO1 241529Z 26005KT 27/05 A2994 RMK A01 T02720045  RH  023%=      5-min Rain = 0
KCO1 241530Z 26004KT 27/05 A2994 RMK A01 T02740046  RH  023%=      5-min Rain = 0
KCO1 241531Z 25003KT 28/05 A2994 RMK A01 T02750045  RH  023%=      5-min Rain = 0
KCO1 241532Z 25006KT 28/05 A2994 RMK A01 T02750048  RH  023%=      5-min Rain = 0
KCO1 241533Z 27005KT 28/04 A2994 RMK A01 T02760044  RH  023%=      5-min Rain = 0
KCO1 241534Z 25006KT 28/05 A2994 RMK A01 T02750050  RH  024%=      5-min Rain = 0
KCO1 241535Z 25006KT 28/05 A2994 RMK A01 T02760046  RH  023%=      5-min Rain = 0
KCO1 241536Z 24006KT 28/05 A2994 RMK A01 T02760046  RH  023%=      5-min Rain = 0
KCO1 241537Z 22006KT 28/05 A2994 RMK A01 T02760051  RH  024%=      5-min Rain = 0
KCO1 241538Z 22005KT 28/05 A2994 RMK A01 T02770045  RH  023%=      5-min Rain = 0
KCO1 241539Z 23007KT 28/05 A2994 RMK A01 T02780045  RH  023%=      5-min Rain = 0
KCO1 241540Z 23006KT 28/05 A2994 RMK A01 T02780049  RH  023%=      5-min Rain = 0
KCO1 241541Z 23006KT 28/05 A2994 RMK A01 T02780045  RH  023%=      5-min Rain = 0
KCO1 241542Z 23006KT 28/05 A2994 RMK A01 T02780049  RH  023%=      5-min Rain = 0
KCO1 241543Z 22005KT 28/05 A2994 RMK A01 T02780046  RH  023%=      5-min Rain = 0
KCO1 241544Z 24006KT 28/05 A2994 RMK A01 T02790048  RH  023%=      5-min Rain = 0
KCO1 241545Z 23005KT 28/05 A2994 RMK A01 T02790047  RH  023%=      5-min Rain = 0
KCO1 241546Z 22005KT 28/05 A2994 RMK A01 T02790047  RH  023%=      5-min Rain = 0
KCO1 241547Z 22005KT 28/05 A2994 RMK A01 T02790052  RH  024%=      5-min Rain = 0
KCO1 241548Z 22005KT 28/05 A2994 RMK A01 T02820054  RH  024%=      5-min Rain = 0
KCO1 241549Z 23005KT 28/05 A2994 RMK A01 T02830048  RH  022%=      5-min Rain = 0
KCO1 241550Z 21005KT 28/05 A2994 RMK A01 T02830047  RH  022%=      5-min Rain = 0
KCO1 241551Z 23006KT 28/06 A2994 RMK A01 T02830055  RH  023%=      5-min Rain = 0
KCO1 241552Z 22005KT 28/05 A2994 RMK A01 T02840050  RH  023%=      5-min Rain = 0
KCO1 241553Z 22005KT 29/06 A2994 RMK A01 T02850055  RH  023%=      5-min Rain = 0
KCO1 241554Z 19005KT 29/06 A2994 RMK A01 T02870055  RH  023%=      5-min Rain = 0
KCO1 241555Z 21006KT 29/06 A2994 RMK A01 T02870055  RH  023%=      5-min Rain = 0
KCO1 241556Z 22008KT 29/06 A2994 RMK A01 T02870055  RH  023%=      5-min Rain = 0
KCO1 241557Z 22006KT 29/05 A2994 RMK A01 T02870052  RH  022%=      5-min Rain = 0
KCO1 241558Z 23005KT 29/05 A2994 RMK A01 T02860050  RH  022%=      5-min Rain = 0
KCO1 241559Z 20005KT 29/05 A2994 RMK A01 T02850051  RH  023%=      5-min Rain = 0
KCO1 241600Z 21004KT 28/05 A2994 RMK A01 T02840049  RH  022%=      5-min Rain = 0
KCO1 241601Z 25004KT 28/06 A2994 RMK A01 T02830056  RH  024%=      5-min Rain = 0
KCO1 241602Z 22005KT 28/05 A2994 RMK A01 T02840054  RH  023%=      5-min Rain = 0
KCO1 241603Z 21005KT 29/06 A2994 RMK A01 T02850057  RH  024%=      5-min Rain = 0
KCO1 241604Z 19006KT 29/06 A2995 RMK A01 T02870061  RH  024%=      5-min Rain = 0
KCO1 241605Z 20006KT 29/06 A2995 RMK A01 T02880057  RH  023%=      5-min Rain = 0
KCO1 241606Z 21006KT 29/06 A2995 RMK A01 T02880060  RH  024%=      5-min Rain = 0
KCO1 241607Z 22006KT 29/06 A2995 RMK A01 T02880060  RH  024%=      5-min Rain = 0
KCO1 241608Z 22005KT 29/06 A2995 RMK A01 T02880058  RH  023%=      5-min Rain = 0
KCO1 241609Z 21005KT 29/07 A2995 RMK A01 T02870065  RH  025%=      5-min Rain = 0
KCO1 241610Z 25005KT 29/07 A2995 RMK A01 T02880072  RH  026%=      5-min Rain = 0
KCO1 241611Z 25005KT 29/07 A2995 RMK A01 T02900071  RH  025%=      5-min Rain = 0
KCO1 241612Z 25003KT 29/07 A2995 RMK A01 T02890066  RH  025%=      5-min Rain = 0
KCO1 241613Z 24002KT 29/07 A2995 RMK A01 T02870066  RH  025%=      5-min Rain = 0
KCO1 241614Z 22003KT 29/07 A2995 RMK A01 T02880072  RH  026%=      5-min Rain = 0
KCO1 241615Z 24005KT 29/07 A2995 RMK A01 T02910074  RH  026%=      5-min Rain = 0
KCO1 241616Z 23005KT 29/08 A2995 RMK A01 T02920075  RH  026%=      5-min Rain = 0
KCO1 241617Z 24004KT 29/08 A2995 RMK A01 T02920075  RH  026%=      5-min Rain = 0
KCO1 241618Z 26006KT 29/08 A2995 RMK A01 T02920080  RH  026%=      5-min Rain = 0
KCO1 241619Z 26005KT 29/08 A2995 RMK A01 T02910078  RH  026%=      5-min Rain = 0
KCO1 241620Z 25007KT 29/08 A2995 RMK A01 T02900082  RH  027%=      5-min Rain = 0
KCO1 241621Z 23007KT 29/08 A2995 RMK A01 T02900084  RH  027%=      5-min Rain = 0
KCO1 241622Z 21006KT 29/08 A2995 RMK A01 T02890078  RH  027%=      5-min Rain = 0
KCO1 241623Z 19005KT 29/08 A2995 RMK A01 T02860077  RH  027%=      5-min Rain = 0
KCO1 241624Z 21005KT 28/08 A2995 RMK A01 T02840079  RH  027%=      5-min Rain = 0
KCO1 241625Z 23005KT 28/09 A2995 RMK A01 T02840086  RH  029%=      5-min Rain = 0
KCO1 241626Z 24006KT 29/08 A2995 RMK A01 T02860082  RH  028%=      5-min Rain = 0
KCO1 241627Z 23006KT 29/08 A2995 RMK A01 T02860084  RH  028%=      5-min Rain = 0
KCO1 241628Z 23003KT 29/09 A2995 RMK A01 T02860092  RH  030%=      5-min Rain = 0
KCO1 241629Z 23005KT 29/09 A2995 RMK A01 T02890091  RH  029%=      5-min Rain = 0
KCO1 241630Z 24005KT 29/09 A2995 RMK A01 T02920093  RH  029%=      5-min Rain = 0
KCO1 241631Z 25005KT 29/09 A2995 RMK A01 T02930089  RH  028%=      5-min Rain = 0
KCO1 241632Z 24005KT 29/09 A2995 RMK A01 T02930086  RH  028%=      5-min Rain = 0
KCO1 241633Z 22004KT 29/08 A2995 RMK A01 T02920084  RH  027%=      5-min Rain = 0
KCO1 241634Z 20003KT 29/08 A2995 RMK A01 T02910080  RH  027%=      5-min Rain = 0
KCO1 241635Z 23002KT 29/08 A2995 RMK A01 T02910082  RH  027%=      5-min Rain = 0
KCO1 241636Z 22002KT 29/08 A2995 RMK A01 T02930079  RH  026%=      5-min Rain = 0
KCO1 241637Z 25005KT 29/08 A2995 RMK A01 T02940081  RH  026%=      5-min Rain = 0
KCO1 241638Z 25006KT 29/09 A2995 RMK A01 T02940087  RH  027%=      5-min Rain = 0
KCO1 241639Z 26005KT 29/09 A2995 RMK A01 T02930087  RH  028%=      5-min Rain = 0
KCO1 241640Z 27004KT 29/08 A2995 RMK A01 T02930083  RH  027%=      5-min Rain = 0
KCO1 241641Z 24006KT 29/09 A2995 RMK A01 T02920089  RH  028%=      5-min Rain = 0
KCO1 241642Z 26006KT 29/09 A2995 RMK A01 T02920090  RH  028%=      5-min Rain = 0
KCO1 241643Z 25007KT 29/09 A2994 RMK A01 T02920089  RH  028%=      5-min Rain = 0
KCO1 241644Z 25007KT 29/09 A2994 RMK A01 T02920089  RH  028%=      5-min Rain = 0
KCO1 241645Z 24006KT 29/09 A2995 RMK A01 T02900093  RH  029%=      5-min Rain = 0
KCO1 241646Z 24005KT 29/10 A2994 RMK A01 T02900097  RH  030%=      5-min Rain = 0
KCO1 241647Z 24003KT 29/09 A2994 RMK A01 T02900093  RH  029%=      5-min Rain = 0
KCO1 241648Z 23003G8KT 29/09 A2994 RMK A01 T02900094  RH  029%=      5-min Rain = 0
KCO1 241649Z 22005KT 29/10 A2994 RMK A01 T02910096  RH  030%=      5-min Rain = 0
KCO1 241650Z 21005KT 29/10 A2994 RMK A01 T02920096  RH  030%=      5-min Rain = 0
KCO1 241651Z 19004KT 29/10 A2994 RMK A01 T02920097  RH  030%=      5-min Rain = 0
KCO1 241652Z 21004KT 29/10 A2994 RMK A01 T02910098  RH  030%=      5-min Rain = 0
KCO1 241653Z 24004KT 29/10 A2994 RMK A01 T02910100  RH  030%=      5-min Rain = 0
KCO1 241654Z 25005KT 29/10 A2994 RMK A01 T02910098  RH  030%=      5-min Rain = 0
KCO1 241655Z 25005KT 29/10 A2994 RMK A01 T02900100  RH  031%=      5-min Rain = 0
KCO1 241656Z 24004KT 29/10 A2994 RMK A01 T02890101  RH  031%=      5-min Rain = 0
KCO1 241657Z 25006KT 29/10 A2994 RMK A01 T02900100  RH  031%=      5-min Rain = 0
KCO1 241658Z 25004KT 29/10 A2994 RMK A01 T02900101  RH  031%=      5-min Rain = 0
KCO1 241659Z 26004KT 29/10 A2994 RMK A01 T02890103  RH  031%=      5-min Rain = 0
KCO1 241700Z 26007KT 29/11 A2994 RMK A01 T02900114  RH  034%=      5-min Rain = 0
KCO1 241701Z 26006KT 29/11 A2994 RMK A01 T02920114  RH  033%=      5-min Rain = 0
KCO1 241702Z 24005KT 29/12 A2994 RMK A01 T02920118  RH  034%=      5-min Rain = 0
KCO1 241703Z 27005KT 29/12 A2994 RMK A01 T02940119  RH  034%=      5-min Rain = 0
KCO1 241704Z 27003KT 30/12 A2994 RMK A01 T02960122  RH  034%=      5-min Rain = 0
KCO1 241705Z 23003KT 30/12 A2994 RMK A01 T02980120  RH  033%=      5-min Rain = 0
KCO1 241706Z 25003KT 30/11 A2994 RMK A01 T02990114  RH  032%=      5-min Rain = 0
KCO1 241707Z 22002KT 30/11 A2994 RMK A01 T02990114  RH  032%=      5-min Rain = 0
KCO1 241708Z 27002KT 30/11 A2994 RMK A01 T02990114  RH  032%=      5-min Rain = 0
KCO1 241709Z 28005KT 30/12 A2994 RMK A01 T03000117  RH  032%=      5-min Rain = 0
KCO1 241710Z 29007KT 30/12 A2994 RMK A01 T03000121  RH  033%=      5-min Rain = 0
KCO1 241711Z 30007KT 30/13 A2994 RMK A01 T02990131  RH  036%=      5-min Rain = 0
KCO1 241712Z 31006KT 30/13 A2994 RMK A01 T02980131  RH  036%=      5-min Rain = 0
KCO1 241713Z 30006KT 30/13 A2994 RMK A01 T02960131  RH  036%=      5-min Rain = 0
KCO1 241714Z 30004KT 30/13 A2994 RMK A01 T02960129  RH  036%=      5-min Rain = 0
KCO1 241715Z 28007KT 30/13 A2994 RMK A01 T02960129  RH  036%=      5-min Rain = 0
KCO1 241716Z 28006KT 30/13 A2994 RMK A01 T02950125  RH  035%=      5-min Rain = 0
KCO1 241717Z 27004KT 30/13 A2994 RMK A01 T02950125  RH  035%=      5-min Rain = 0
KCO1 241718Z 25002KT 30/12 A2994 RMK A01 T02950123  RH  034%=      5-min Rain = 0
KCO1 241719Z 26004KT 30/13 A2994 RMK A01 T02960133  RH  037%=      5-min Rain = 0
KCO1 241720Z 24005KT 30/14 A2994 RMK A01 T02990138  RH  037%=      5-min Rain = 0
KCO1 241721Z 22006KT 30/15 A2993 RMK A01 T03000148  RH  040%=      5-min Rain = 0
KCO1 241722Z 23004KT 30/15 A2993 RMK A01 T03010147  RH  039%=      5-min Rain = 0
KCO1 241723Z 26004KT 30/15 A2993 RMK A01 T03020150  RH  040%=      5-min Rain = 0
KCO1 241724Z 27006KT 30/15 A2993 RMK A01 T03030153  RH  040%=      5-min Rain = 0
KCO1 241725Z 26006KT 30/16 A2993 RMK A01 T03030161  RH  042%=      5-min Rain = 0
KCO1 241726Z 27005KT 30/16 A2993 RMK A01 T03030161  RH  042%=      5-min Rain = 0
KCO1 241727Z 28003KT 30/16 A2993 RMK A01 T03020159  RH  042%=      5-min Rain = 0
KCO1 241728Z 32004KT 30/16 A2993 RMK A01 T03000160  RH  043%=      5-min Rain = 0
KCO1 241729Z 31004KT 30/16 A2993 RMK A01 T03000155  RH  042%=      5-min Rain = 0
KCO1 241730Z 33004KT 30/15 A2993 RMK A01 T03000154  RH  041%=      5-min Rain = 0
KCO1 241731Z 27004KT 30/16 A2993 RMK A01 T03000158  RH  042%=      5-min Rain = 0
KCO1 241732Z 29000KT 30/15 A2993 RMK A01 T03000153  RH  041%=      5-min Rain = 0
KCO1 241733Z 27002KT 30/15 A2993 RMK A01 T03020153  RH  041%=      5-min Rain = 0
KCO1 241734Z 27004KT 30/15 A2993 RMK A01 T03030152  RH  040%=      5-min Rain = 0
KCO1 241735Z 25005KT 30/15 A2993 RMK A01 T03020154  RH  041%=      5-min Rain = 0
KCO1 241736Z 25004KT 30/16 A2993 RMK A01 T03010157  RH  042%=      5-min Rain = 0
KCO1 241737Z 25004KT 30/16 A2993 RMK A01 T03030156  RH  041%=      5-min Rain = 0
KCO1 241738Z 27004KT 30/15 A2993 RMK A01 T03040152  RH  040%=      5-min Rain = 0
KCO1 241739Z 27004KT 30/16 A2993 RMK A01 T03030155  RH  041%=      5-min Rain = 0
KCO1 241740Z 26003KT 30/16 A2993 RMK A01 T03010155  RH  041%=      5-min Rain = 0
KCO1 241741Z 23004KT 30/16 A2993 RMK A01 T03010157  RH  042%=      5-min Rain = 0
KCO1 241742Z 22003KT 30/16 A2993 RMK A01 T03010157  RH  042%=      5-min Rain = 0
KCO1 241743Z 17002KT 30/16 A2993 RMK A01 T03010156  RH  041%=      5-min Rain = 0
KCO1 241744Z 13002KT 30/16 A2993 RMK A01 T03010157  RH  042%=      5-min Rain = 0
KCO1 241745Z 15002KT 30/16 A2993 RMK A01 T03030157  RH  041%=      5-min Rain = 0
KCO1 241746Z 21002KT 31/16 A2993 RMK A01 T03050156  RH  041%=      5-min Rain = 0
KCO1 241747Z 24003KT 31/15 A2992 RMK A01 T03060152  RH  039%=      5-min Rain = 0
KCO1 241748Z 30004KT 31/16 A2992 RMK A01 T03070156  RH  040%=      5-min Rain = 0
KCO1 241749Z 33004KT 31/16 A2992 RMK A01 T03080155  RH  040%=      5-min Rain = 0
KCO1 241750Z 34004KT 31/15 A2992 RMK A01 T03070153  RH  039%=      5-min Rain = 0
KCO1 241751Z 36004KT 31/15 A2992 RMK A01 T03050153  RH  040%=      5-min Rain = 0
KCO1 241752Z 35004KT 31/15 A2992 RMK A01 T03060154  RH  040%=      5-min Rain = 0
KCO1 241753Z 35005KT 31/16 A2992 RMK A01 T03060156  RH  040%=      5-min Rain = 0
KCO1 241754Z 34005KT 31/16 A2992 RMK A01 T03050156  RH  041%=      5-min Rain = 0
KCO1 241755Z 34005KT 31/15 A2992 RMK A01 T03060154  RH  040%=      5-min Rain = 0
KCO1 241756Z 33004KT 31/16 A2992 RMK A01 T03050156  RH  040%=      5-min Rain = 0
KCO1 241757Z 33003KT 31/16 A2992 RMK A01 T03050158  RH  041%=      5-min Rain = 0
KCO1 241758Z 33006KT 30/16 A2992 RMK A01 T03040159  RH  042%=      5-min Rain = 0
KCO1 241759Z 00005KT 30/16 A2992 RMK A01 T03040162  RH  042%=      5-min Rain = 0
KCO1 241800Z 34003KT 30/16 A2992 RMK A01 T03040164  RH  043%=      5-min Rain = 0
KCO1 241801Z 33003KT 30/16 A2992 RMK A01 T03040163  RH  042%=      5-min Rain = 0
KCO1 241802Z 34003KT 31/16 A2992 RMK A01 T03050161  RH  042%=      5-min Rain = 0
KCO1 241803Z 06002KT 30/16 A2992 RMK A01 T03040164  RH  043%=      5-min Rain = 0
KCO1 241804Z 34002KT 31/17 A2991 RMK A01 T03050166  RH  043%=      5-min Rain = 0
KCO1 241805Z 30002KT 31/16 A2991 RMK A01 T03070164  RH  042%=      5-min Rain = 0
KCO1 241806Z 32007KT 31/16 A2991 RMK A01 T03080158  RH  041%=      5-min Rain = 0
KCO1 241807Z 29007KT 31/16 A2991 RMK A01 T03090161  RH  041%=      5-min Rain = 0
KCO1 241808Z 30005KT 31/16 A2991 RMK A01 T03090160  RH  040%=      5-min Rain = 0
KCO1 241809Z 33003KT 31/16 A2991 RMK A01 T03090158  RH  040%=      5-min Rain = 0
KCO1 241810Z 29006KT 31/16 A2991 RMK A01 T03090157  RH  040%=      5-min Rain = 0
KCO1 241811Z 29006KT 31/16 A2991 RMK A01 T03090160  RH  041%=      5-min Rain = 0
KCO1 241812Z 29004KT 31/16 A2991 RMK A01 T03080156  RH  040%=      5-min Rain = 0
KCO1 241813Z 31003G8KT 31/16 A2991 RMK A01 T03080155  RH  040%=      5-min Rain = 0
KCO1 241814Z 33001KT 31/15 A2991 RMK A01 T03060152  RH  039%=      5-min Rain = 0
KCO1 241815Z 26002KT 31/15 A2991 RMK A01 T03060154  RH  040%=      5-min Rain = 0
KCO1 241816Z 26003KT 31/15 A2991 RMK A01 T03070154  RH  039%=      5-min Rain = 0
KCO1 241817Z 28002KT 31/15 A2991 RMK A01 T03080153  RH  039%=      5-min Rain = 0
KCO1 241818Z 20001KT 31/15 A2991 RMK A01 T03070152  RH  039%=      5-min Rain = 0
KCO1 241819Z 00000KT 31/15 A2991 RMK A01 T03070153  RH  039%=      5-min Rain = 0
KCO1 241820Z 31003KT 31/16 A2991 RMK A01 T03110156  RH  039%=      5-min Rain = 0
KCO1 241821Z 32005KT 31/15 A2991 RMK A01 T03110153  RH  038%=      5-min Rain = 0
KCO1 241822Z 34003KT 31/15 A2991 RMK A01 T03100152  RH  038%=      5-min Rain = 0
KCO1 241823Z 34001KT 31/15 A2991 RMK A01 T03100152  RH  038%=      5-min Rain = 0
KCO1 241824Z 00000KT 31/15 A2991 RMK A01 T03110152  RH  038%=      5-min Rain = 0
KCO1 241825Z 31000KT 31/16 A2991 RMK A01 T03140155  RH  038%=      5-min Rain = 0
KCO1 241826Z 31001KT 32/15 A2991 RMK A01 T03160148  RH  036%=      5-min Rain = 0
KCO1 241827Z 35003KT 32/15 A2991 RMK A01 T03150153  RH  037%=      5-min Rain = 0
KCO1 241828Z 31004KT 32/16 A2991 RMK A01 T03160157  RH  038%=      5-min Rain = 0
KCO1 241829Z 30006KT 32/15 A2991 RMK A01 T03180147  RH  035%=      5-min Rain = 0
KCO1 241830Z 31004KT 32/14 A2991 RMK A01 T03170140  RH  034%=      5-min Rain = 0
KCO1 241831Z 29002KT 32/14 A2991 RMK A01 T03160140  RH  034%=      5-min Rain = 0
KCO1 241832Z 28001KT 32/14 A2991 RMK A01 T03150142  RH  035%=      5-min Rain = 0
KCO1 241833Z 32002KT 32/15 A299 RMK A01 T03150145  RH  036%=      5-min Rain = 0
KCO1 241834Z 32000KT 32/14 A299 RMK A01 T03150142  RH  035%=      5-min Rain = 0
KCO1 241835Z 00000KT 32/15 A299 RMK A01 T03160146  RH  036%=      5-min Rain = 0
KCO1 241836Z 00000KT 32/15 A299 RMK A01 T03170145  RH  035%=      5-min Rain = 0
KCO1 241837Z 01002KT 32/14 A299 RMK A01 T03180142  RH  034%=      5-min Rain = 0
KCO1 241838Z 00002KT 32/14 A299 RMK A01 T03190140  RH  034%=      5-min Rain = 0
KCO1 241839Z 27002KT 32/15 A299 RMK A01 T03170145  RH  035%=      5-min Rain = 0
KCO1 241840Z 28002KT 32/15 A299 RMK A01 T03170148  RH  036%=      5-min Rain = 0
KCO1 241841Z 28001KT 32/15 A299 RMK A01 T03150146  RH  036%=      5-min Rain = 0
KCO1 241842Z 24002KT 32/15 A299 RMK A01 T03150145  RH  036%=      5-min Rain = 0
KCO1 241843Z 22003KT 32/13 A299 RMK A01 T03150130  RH  032%=      5-min Rain = 0
KCO1 241844Z 23002KT 32/13 A299 RMK A01 T03160129  RH  032%=      5-min Rain = 0
KCO1 241845Z 22003KT 32/13 A299 RMK A01 T03160134  RH  033%=      5-min Rain = 0
KCO1 241846Z 22002KT 32/13 A299 RMK A01 T03170133  RH  032%=      5-min Rain = 0
KCO1 241847Z 23001KT 32/13 A299 RMK A01 T03170133  RH  033%=      5-min Rain = 0
KCO1 241848Z 26001KT 32/14 A299 RMK A01 T03170137  RH  034%=      5-min Rain = 0
KCO1 241849Z 24002KT 32/14 A299 RMK A01 T03170135  RH  033%=      5-min Rain = 0
KCO1 241850Z 24001KT 32/13 A299 RMK A01 T03170132  RH  032%=      5-min Rain = 0
KCO1 241851Z 29003KT 32/14 A299 RMK A01 T03170135  RH  033%=      5-min Rain = 0
KCO1 241852Z 28003KT 32/14 A299 RMK A01 T03170140  RH  034%=      5-min Rain = 0
KCO1 241853Z 28002KT 32/15 A299 RMK A01 T03170145  RH  035%=      5-min Rain = 0
KCO1 241854Z 29003KT 32/15 A299 RMK A01 T03180145  RH  035%=      5-min Rain = 0
KCO1 241855Z 32004KT 32/14 A299 RMK A01 T03190143  RH  035%=      5-min Rain = 0
KCO1 241856Z 32003KT 32/14 A2989 RMK A01 T03170142  RH  034%=      5-min Rain = 0
KCO1 241857Z 32003KT 32/14 A299 RMK A01 T03170140  RH  034%=      5-min Rain = 0
KCO1 241858Z 29001KT 32/15 A299 RMK A01 T03190146  RH  035%=      5-min Rain = 0
KCO1 241859Z 06001KT 32/14 A299 RMK A01 T03220144  RH  034%=      5-min Rain = 0
KCO1 241900Z 07002KT 32/15 A299 RMK A01 T03230150  RH  035%=      5-min Rain = 0
KCO1 241901Z 05000KT 32/15 A299 RMK A01 T03230149  RH  035%=      5-min Rain = 0
KCO1 241902Z 02004KT 32/15 A299 RMK A01 T03240151  RH  035%=      5-min Rain = 0
KCO1 241903Z 01005KT 33/15 A299 RMK A01 T03250149  RH  035%=      5-min Rain = 0
KCO1 241904Z 00005KT 32/15 A299 RMK A01 T03230148  RH  035%=      5-min Rain = 0
KCO1 241905Z 36004KT 32/15 A299 RMK A01 T03210148  RH  035%=      5-min Rain = 0
KCO1 241906Z 06004KT 32/15 A299 RMK A01 T03200153  RH  036%=      5-min Rain = 0
KCO1 241907Z 08006KT 32/16 A299 RMK A01 T03220157  RH  037%=      5-min Rain = 0
KCO1 241908Z 08007KT 32/16 A299 RMK A01 T03240155  RH  036%=      5-min Rain = 0
KCO1 241909Z 07004KT 32/15 A2989 RMK A01 T03240154  RH  036%=      5-min Rain = 0
KCO1 241910Z 06005KT 32/15 A2989 RMK A01 T03240154  RH  036%=      5-min Rain = 0
KCO1 241911Z 08003KT 32/15 A2989 RMK A01 T03230151  RH  035%=      5-min Rain = 0
KCO1 241912Z 09003KT 32/15 A2989 RMK A01 T03220148  RH  035%=      5-min Rain = 0
KCO1 241913Z 06003KT 32/15 A2989 RMK A01 T03210152  RH  036%=      5-min Rain = 0
KCO1 241914Z 06006KT 32/15 A2989 RMK A01 T03230153  RH  036%=      5-min Rain = 0
KCO1 241915Z 05005KT 33/15 A2989 RMK A01 T03250150  RH  035%=      5-min Rain = 0
KCO1 241916Z 05005KT 33/15 A2989 RMK A01 T03250148  RH  034%=      5-min Rain = 0
KCO1 241917Z 04003KT 32/15 A2989 RMK A01 T03230146  RH  034%=      5-min Rain = 0
KCO1 241918Z 07003KT 32/15 A2989 RMK A01 T03230148  RH  035%=      5-min Rain = 0
KCO1 241919Z 09003KT 32/15 A2989 RMK A01 T03240150  RH  035%=      5-min Rain = 0
KCO1 241920Z 09002KT 33/15 A2989 RMK A01 T03250148  RH  034%=      5-min Rain = 0
KCO1 241921Z 07003KT 33/15 A2989 RMK A01 T03260147  RH  034%=      5-min Rain = 0
KCO1 241922Z 05002KT 33/15 A2989 RMK A01 T03270150  RH  034%=      5-min Rain = 0
KCO1 241923Z 02002KT 33/15 A2989 RMK A01 T03290152  RH  034%=      5-min Rain = 0
KCO1 241924Z 01001KT 33/15 A2989 RMK A01 T03290147  RH  034%=      5-min Rain = 0
KCO1 241925Z 34000KT 33/15 A2989 RMK A01 T03290148  RH  034%=      5-min Rain = 0
KCO1 241926Z 32001KT 33/15 A2989 RMK A01 T03290147  RH  033%=      5-min Rain = 0
KCO1 241927Z 00000KT 33/15 A2989 RMK A01 T03290147  RH  033%=      5-min Rain = 0
KCO1 241928Z 34001KT 33/15 A2989 RMK A01 T03280148  RH  034%=      5-min Rain = 0
KCO1 241929Z 01000KT 33/15 A2989 RMK A01 T03300147  RH  033%=      5-min Rain = 0
KCO1 241930Z 00000KT 33/15 A2989 RMK A01 T03320149  RH  033%=      5-min Rain = 0
KCO1 241931Z 16000KT 33/15 A2989 RMK A01 T03330148  RH  033%=      5-min Rain = 0
KCO1 241932Z 23002KT 34/15 A2989 RMK A01 T03360150  RH  033%=      5-min Rain = 0
KCO1 241933Z 26001KT 34/15 A2989 RMK A01 T03370145  RH  032%=      5-min Rain = 0
KCO1 241934Z 25002KT 34/15 A2989 RMK A01 T03370147  RH  032%=      5-min Rain = 0
KCO1 241935Z 22000KT 34/14 A2989 RMK A01 T03360141  RH  031%=      5-min Rain = 0
KCO1 241936Z 06003KT 33/14 A2988 RMK A01 T03340140  RH  031%=      5-min Rain = 0
KCO1 241937Z 07002KT 33/14 A2988 RMK A01 T03300143  RH  032%=      5-min Rain = 0
KCO1 241938Z 06000KT 33/14 A2988 RMK A01 T03300141  RH  032%=      5-min Rain = 0
KCO1 241939Z 00000KT 33/14 A2988 RMK A01 T03310143  RH  032%=      5-min Rain = 0
KCO1 241940Z 05002KT 33/14 A2988 RMK A01 T03330144  RH  032%=      5-min Rain = 0
KCO1 241941Z 06003KT 33/15 A2988 RMK A01 T03330150  RH  033%=      5-min Rain = 0
KCO1 241942Z 04002KT 33/15 A2988 RMK A01 T03330148  RH  033%=      5-min Rain = 0
KCO1 241943Z 04002KT 33/15 A2988 RMK A01 T03320146  RH  033%=      5-min Rain = 0
KCO1 241944Z 04002KT 33/15 A2988 RMK A01 T03290145  RH  033%=      5-min Rain = 0
KCO1 241945Z 11003KT 33/15 A2988 RMK A01 T03270146  RH  034%=      5-min Rain = 0
KCO1 241946Z 10003KT 33/15 A2988 RMK A01 T03260150  RH  035%=      5-min Rain = 0
KCO1 241947Z 09003KT 33/15 A2988 RMK A01 T03280152  RH  035%=      5-min Rain = 0
KCO1 241948Z 10002KT 33/15 A2988 RMK A01 T03290150  RH  034%=      5-min Rain = 0
KCO1 241949Z 10002KT 33/15 A2988 RMK A01 T03290151  RH  034%=      5-min Rain = 0
KCO1 241950Z 11002KT 33/15 A2988 RMK A01 T03290147  RH  033%=      5-min Rain = 0
KCO1 241951Z 07001KT 33/15 A2988 RMK A01 T03280149  RH  034%=      5-min Rain = 0
KCO1 241952Z 06004KT 33/15 A2988 RMK A01 T03300152  RH  034%=      5-min Rain = 0
KCO1 241953Z 06004KT 33/15 A2988 RMK A01 T03320150  RH  033%=      5-min Rain = 0
KCO1 241954Z 07003KT 33/15 A2988 RMK A01 T03310151  RH  034%=      5-min Rain = 0
KCO1 241955Z 01004KT 33/15 A2988 RMK A01 T03310150  RH  034%=      5-min Rain = 0
KCO1 241956Z 01003KT 33/15 A2988 RMK A01 T03330146  RH  032%=      5-min Rain = 0
KCO1 241957Z 03003KT 33/15 A2988 RMK A01 T03320146  RH  033%=      5-min Rain = 0
KCO1 241958Z 08002KT 33/15 A2988 RMK A01 T03310150  RH  034%=      5-min Rain = 0
KCO1 241959Z 33002KT 33/15 A2988 RMK A01 T03340151  RH  033%=      5-min Rain = 0
KCO1 242000Z 28004KT 34/15 A2988 RMK A01 T03370146  RH  032%=      5-min Rain = 0
KCO1 242001Z 29002KT 34/15 A2988 RMK A01 T03370145  RH  032%=      5-min Rain = 0
KCO1 242002Z 02002KT 34/14 A2988 RMK A01 T03350141  RH  031%=      5-min Rain = 0
KCO1 242003Z 03000KT 33/14 A2988 RMK A01 T03330141  RH  031%=      5-min Rain = 0
KCO1 242004Z 28000KT 33/14 A2988 RMK A01 T03340139  RH  031%=      5-min Rain = 0
KCO1 242005Z 27000KT 34/14 A2988 RMK A01 T03350142  RH  031%=      5-min Rain = 0
KCO1 242006Z 35000KT 34/14 A2988 RMK A01 T03370140  RH  030%=      5-min Rain = 0
KCO1 242007Z 35002KT 34/14 A2988 RMK A01 T03370139  RH  030%=      5-min Rain = 0
KCO1 242008Z 04004KT 34/15 A2988 RMK A01 T03360146  RH  032%=      5-min Rain = 0
KCO1 242009Z 04003KT 34/15 A2988 RMK A01 T03370150  RH  033%=      5-min Rain = 0
KCO1 242010Z 03005KT 34/15 A2988 RMK A01 T03380145  RH  031%=      5-min Rain = 0
KCO1 242011Z 04006KT 34/15 A2988 RMK A01 T03380146  RH  032%=      5-min Rain = 0
KCO1 242012Z 06006KT 34/15 A2987 RMK A01 T03380147  RH  032%=      5-min Rain = 0
KCO1 242013Z 05007KT 34/15 A2987 RMK A01 T03370149  RH  032%=      5-min Rain = 0
KCO1 242014Z 05003KT 34/14 A2987 RMK A01 T03350141  RH  031%=      5-min Rain = 0
KCO1 242015Z 10006KT 33/15 A2987 RMK A01 T03320145  RH  032%=      5-min Rain = 0
KCO1 242016Z 10005KT 33/14 A2987 RMK A01 T03310142  RH  032%=      5-min Rain = 0
KCO1 242017Z 08004KT 33/15 A2987 RMK A01 T03310147  RH  033%=      5-min Rain = 0
KCO1 242018Z 08006KT 33/15 A2987 RMK A01 T03340147  RH  032%=      5-min Rain = 0
KCO1 242019Z 08005KT 34/15 A2987 RMK A01 T03350151  RH  033%=      5-min Rain = 0
KCO1 242020Z 04004KT 34/14 A2987 RMK A01 T03350144  RH  032%=      5-min Rain = 0
KCO1 242021Z 04005KT 33/14 A2987 RMK A01 T03330144  RH  032%=      5-min Rain = 0
KCO1 242022Z 04005KT 33/14 A2987 RMK A01 T03330144  RH  032%=      5-min Rain = 0
KCO1 242023Z 06003KT 33/14 A2987 RMK A01 T03330144  RH  032%=      5-min Rain = 0
KCO1 242024Z 03004KT 33/15 A2987 RMK A01 T03340145  RH  032%=      5-min Rain = 0
KCO1 242025Z 03003KT 33/14 A2987 RMK A01 T03340139  RH  031%=      5-min Rain = 0
KCO1 242026Z 05002KT 33/14 A2987 RMK A01 T03320140  RH  031%=      5-min Rain = 0
KCO1 242027Z 02002G7KT 33/14 A2986 RMK A01 T03320141  RH  031%=      5-min Rain = 0
KCO1 242028Z 03006KT 33/14 A2986 RMK A01 T03340142  RH  031%=      5-min Rain = 0
KCO1 242029Z 04006KT 33/14 A2986 RMK A01 T03340144  RH  032%=      5-min Rain = 0
KCO1 242030Z 05006KT 34/14 A2986 RMK A01 T03360144  RH  031%=      5-min Rain = 0
KCO1 242031Z 04006KT 34/14 A2986 RMK A01 T03370142  RH  031%=      5-min Rain = 0
KCO1 242032Z 06006KT 34/14 A2986 RMK A01 T03370140  RH  031%=      5-min Rain = 0
KCO1 242033Z 02002KT 34/14 A2986 RMK A01 T03350140  RH  031%=      5-min Rain = 0
KCO1 242034Z 03004KT 34/14 A2986 RMK A01 T03360138  RH  030%=      5-min Rain = 0
KCO1 242035Z 04003KT 34/14 A2986 RMK A01 T03360140  RH  031%=      5-min Rain = 0
KCO1 242036Z 06005KT 34/15 A2986 RMK A01 T03380148  RH  032%=      5-min Rain = 0
KCO1 242037Z 04004KT 34/15 A2986 RMK A01 T03430150  RH  032%=      5-min Rain = 0
KCO1 242038Z 04004G9KT 35/14 A2986 RMK A01 T03470144  RH  030%=      5-min Rain = 0
KCO1 242039Z 06008G13KT 35/16 A2986 RMK A01 T03470155  RH  032%=      5-min Rain = 0
KCO1 242040Z 07015KT 35/19 A2986 RMK A01 T03450192  RH  041%=      5-min Rain = 0
KCO1 242041Z 08015KT 34/20 A2986 RMK A01 T03360195  RH  044%=      5-min Rain = 0
KCO1 242042Z 09014KT 33/20 A2986 RMK A01 T03310197  RH  045%=      5-min Rain = 0
KCO1 242043Z 09012KT 33/20 A2986 RMK A01 T03290197  RH  046%=      5-min Rain = 0
KCO1 242044Z 11012G17KT 33/20 A2986 RMK A01 T03270196  RH  046%=      5-min Rain = 0
KCO1 242045Z 11011G16KT 32/19 A2986 RMK A01 T03240191  RH  045%=      5-min Rain = 0
KCO1 242046Z 11009G15KT 32/19 A2986 RMK A01 T03210194  RH  047%=      5-min Rain = 0
KCO1 242047Z 13014G20KT 32/19 A2986 RMK A01 T03210194  RH  047%=      5-min Rain = 0
KCO1 242048Z 12013G19KT 32/19 A2986 RMK A01 T03220192  RH  046%=      5-min Rain = 0
KCO1 242049Z 13013G18KT 32/19 A2986 RMK A01 T03220191  RH  046%=      5-min Rain = 0
KCO1 242050Z 17015KT 32/19 A2986 RMK A01 T03220188  RH  045%=      5-min Rain = 0
KCO1 242051Z 18011KT 32/19 A2986 RMK A01 T03220187  RH  045%=      5-min Rain = 0
KCO1 242052Z 18015KT 32/19 A2986 RMK A01 T03220186  RH  045%=      5-min Rain = 0
KCO1 242053Z 18017KT 32/18 A2986 RMK A01 T03230184  RH  044%=      5-min Rain = 0
KCO1 242054Z 18015KT 32/18 A2986 RMK A01 T03210181  RH  043%=      5-min Rain = 0
KCO1 242055Z 18015KT 32/18 A2986 RMK A01 T03200182  RH  044%=      5-min Rain = 0
KCO1 242056Z 18013KT 32/18 A2986 RMK A01 T03200181  RH  044%=      5-min Rain = 0
KCO1 242057Z 18015KT 32/18 A2986 RMK A01 T03190179  RH  043%=      5-min Rain = 0
KCO1 242058Z 18015KT 32/18 A2986 RMK A01 T03190177  RH  043%=      5-min Rain = 0
KCO1 242059Z 18014G19KT 32/18 A2986 RMK A01 T03200179  RH  043%=      5-min Rain = 0
KCO1 242100Z 18013G18KT 32/18 A2986 RMK A01 T03210179  RH  043%=      5-min Rain = 0
KCO1 242101Z 18012KT 32/18 A2986 RMK A01 T03230178  RH  042%=      5-min Rain = 0
KCO1 242102Z 18014KT 32/18 A2985 RMK A01 T03230177  RH  042%=      5-min Rain = 0
KCO1 242103Z 18014KT 33/18 A2985 RMK A01 T03250177  RH  041%=      5-min Rain = 0
KCO1 242104Z 18015KT 33/18 A2985 RMK A01 T03250175  RH  041%=      5-min Rain = 0
KCO1 242105Z 18013G18KT 32/17 A2985 RMK A01 T03230173  RH  041%=      5-min Rain = 0
KCO1 242106Z 18013G18KT 32/17 A2985 RMK A01 T03230174  RH  041%=      5-min Rain = 0
KCO1 242107Z 18018KT 32/17 A2985 RMK A01 T03230171  RH  040%=      5-min Rain = 0
KCO1 242108Z 18015KT 32/17 A2985 RMK A01 T03200171  RH  041%=      5-min Rain = 0
KCO1 242109Z 18014KT 32/17 A2985 RMK A01 T03190173  RH  042%=      5-min Rain = 0
KCO1 242110Z 18014KT 32/17 A2985 RMK A01 T03190171  RH  041%=      5-min Rain = 0
KCO1 242111Z 18013G18KT 32/17 A2985 RMK A01 T03180170  RH  041%=      5-min Rain = 0
KCO1 242112Z 18014KT 32/17 A2985 RMK A01 T03170170  RH  041%=      5-min Rain = 0
KCO1 242113Z 18012KT 32/17 A2984 RMK A01 T03160172  RH  042%=      5-min Rain = 0
KCO1 242114Z 18013KT 32/18 A2984 RMK A01 T03180178  RH  043%=      5-min Rain = 0
KCO1 242115Z 18011KT 32/18 A2984 RMK A01 T03210178  RH  042%=      5-min Rain = 0
KCO1 242116Z 18013KT 32/18 A2984 RMK A01 T03230181  RH  043%=      5-min Rain = 0
KCO1 242117Z 18013KT 33/18 A2984 RMK A01 T03250181  RH  043%=      5-min Rain = 0
KCO1 242118Z 18013KT 32/18 A2984 RMK A01 T03230181  RH  043%=      5-min Rain = 0
KCO1 242119Z 18013KT 32/18 A2984 RMK A01 T03190181  RH  044%=      5-min Rain = 0
KCO1 242120Z 18016KT 32/18 A2984 RMK A01 T03190183  RH  044%=      5-min Rain = 0
KCO1 242121Z 18015KT 32/18 A2984 RMK A01 T03180181  RH  044%=      5-min Rain = 0
KCO1 242122Z 18016KT 32/18 A2984 RMK A01 T03170180  RH  044%=      5-min Rain = 0
KCO1 242123Z 18013KT 32/18 A2984 RMK A01 T03170180  RH  044%=      5-min Rain = 0
KCO1 242124Z 18014KT 32/18 A2984 RMK A01 T03190181  RH  044%=      5-min Rain = 0
KCO1 242125Z 18013KT 32/18 A2984 RMK A01 T03200180  RH  043%=      5-min Rain = 0
KCO1 242126Z 18014KT 32/18 A2984 RMK A01 T03210181  RH  043%=      5-min Rain = 0
KCO1 242127Z 18012KT 32/18 A2984 RMK A01 T03210183  RH  044%=      5-min Rain = 0
KCO1 242128Z 18012G17KT 32/18 A2984 RMK A01 T03220184  RH  044%=      5-min Rain = 0
KCO1 242129Z 18014KT 32/18 A2984 RMK A01 T03230183  RH  043%=      5-min Rain = 0
KCO1 242130Z 18014KT 32/18 A2984 RMK A01 T03230181  RH  043%=      5-min Rain = 0
KCO1 242131Z 18014KT 32/18 A2984 RMK A01 T03210180  RH  043%=      5-min Rain = 0
KCO1 242132Z 18016KT 32/18 A2984 RMK A01 T03210179  RH  043%=      5-min Rain = 0
KCO1 242133Z 10015G20KT 32/18 A2984 RMK A01 T03200181  RH  044%=      5-min Rain = 0
KCO1 242134Z 11015KT 32/18 A2984 RMK A01 T03190183  RH  044%=      5-min Rain = 0
KCO1 242135Z 10013KT 32/18 A2984 RMK A01 T03190183  RH  045%=      5-min Rain = 0
KCO1 242136Z 10016KT 32/18 A2984 RMK A01 T03180182  RH  044%=      5-min Rain = 0
KCO1 242137Z 10011KT 32/18 A2984 RMK A01 T03180183  RH  045%=      5-min Rain = 0
KCO1 242138Z 09014KT 32/19 A2984 RMK A01 T03190185  RH  045%=      5-min Rain = 0
KCO1 242139Z 10013G18KT 32/19 A2983 RMK A01 T03190186  RH  045%=      5-min Rain = 0
KCO1 242140Z 10015KT 32/19 A2984 RMK A01 T03200188  RH  046%=      5-min Rain = 0
KCO1 242141Z 09013KT 32/19 A2984 RMK A01 T03190191  RH  047%=      5-min Rain = 0
KCO1 242142Z 09013KT 32/19 A2983 RMK A01 T03170192  RH  048%=      5-min Rain = 0
KCO1 242143Z 09012KT 32/19 A2983 RMK A01 T03180189  RH  046%=      5-min Rain = 0
KCO1 242144Z 10013KT 32/19 A2984 RMK A01 T03210187  RH  045%=      5-min Rain = 0
KCO1 242145Z 10014KT 32/18 A2983 RMK A01 T03220182  RH  043%=      5-min Rain = 0
KCO1 242146Z 10012KT 32/18 A2983 RMK A01 T03190180  RH  044%=      5-min Rain = 0
KCO1 242147Z 09014KT 32/19 A2983 RMK A01 T03180186  RH  046%=      5-min Rain = 0
KCO1 242148Z 10017KT 32/19 A2983 RMK A01 T03190191  RH  047%=      5-min Rain = 0
KCO1 242149Z 10016KT 32/19 A2983 RMK A01 T03170192  RH  047%=      5-min Rain = 0
KCO1 242150Z 09018KT 32/19 A2983 RMK A01 T03160191  RH  048%=      5-min Rain = 0
KCO1 242151Z 10018KT 31/19 A2983 RMK A01 T03130189  RH  048%=      5-min Rain = 0
KCO1 242152Z 11014KT 31/19 A2983 RMK A01 T03110189  RH  048%=      5-min Rain = 0
KCO1 242153Z 10016KT 31/19 A2983 RMK A01 T03110191  RH  049%=      5-min Rain = 0
KCO1 242154Z 10017KT 31/19 A2983 RMK A01 T03130192  RH  049%=      5-min Rain = 0
KCO1 242155Z 09015KT 31/19 A2983 RMK A01 T03130192  RH  049%=      5-min Rain = 0
KCO1 242156Z 10014KT 31/19 A2982 RMK A01 T03130192  RH  049%=      5-min Rain = 0
KCO1 242157Z 10016KT 31/19 A2982 RMK A01 T03130193  RH  049%=      5-min Rain = 0
KCO1 242158Z 11017KT 31/19 A2982 RMK A01 T03120192  RH  049%=      5-min Rain = 0
KCO1 242159Z 11017KT 31/19 A2982 RMK A01 T03100190  RH  049%=      5-min Rain = 0
KCO1 242200Z 09016KT 31/19 A2982 RMK A01 T03080192  RH  050%=      5-min Rain = 0
KCO1 242201Z 09014KT 31/19 A2982 RMK A01 T03070191  RH  050%=      5-min Rain = 0
KCO1 242202Z 10018KT 31/19 A2982 RMK A01 T03070191  RH  050%=      5-min Rain = 0
KCO1 242203Z 11015KT 31/19 A2982 RMK A01 T03070190  RH  050%=      5-min Rain = 0
KCO1 242204Z 11015KT 31/19 A2982 RMK A01 T03070190  RH  050%=      5-min Rain = 0
KCO1 242205Z 10015KT 31/19 A2982 RMK A01 T03080190  RH  050%=      5-min Rain = 0
KCO1 242206Z 09016KT 31/19 A2982 RMK A01 T03090189  RH  049%=      5-min Rain = 0
KCO1 242207Z 09015KT 31/19 A2982 RMK A01 T03090188  RH  048%=      5-min Rain = 0
KCO1 242208Z 10017G23KT 31/19 A2982 RMK A01 T03090189  RH  049%=      5-min Rain = 0
KCO1 242209Z 10015KT 31/19 A2982 RMK A01 T03090188  RH  049%=      5-min Rain = 0
KCO1 242210Z 09016KT 31/19 A2982 RMK A01 T03090189  RH  049%=      5-min Rain = 0
KCO1 242211Z 09016KT 31/19 A2982 RMK A01 T03090188  RH  049%=      5-min Rain = 0
KCO1 242212Z 09014KT 31/19 A2982 RMK A01 T03070188  RH  049%=      5-min Rain = 0
KCO1 242213Z 10016KT 31/19 A2982 RMK A01 T03080186  RH  048%=      5-min Rain = 0
KCO1 242214Z 09014G19KT 31/19 A2982 RMK A01 T03080187  RH  048%=      5-min Rain = 0
KCO1 242215Z 09015KT 31/19 A2982 RMK A01 T03100185  RH  047%=      5-min Rain = 0
KCO1 242216Z 10015KT 31/19 A2982 RMK A01 T03100186  RH  048%=      5-min Rain = 0
KCO1 242217Z 10016KT 31/18 A2982 RMK A01 T03100181  RH  046%=      5-min Rain = 0
KCO1 242218Z 09013G18KT 31/18 A2982 RMK A01 T03100183  RH  047%=      5-min Rain = 0
KCO1 242219Z 10015KT 31/18 A2982 RMK A01 T03110183  RH  047%=      5-min Rain = 0
KCO1 242220Z 09014G19KT 31/18 A2982 RMK A01 T03120182  RH  046%=      5-min Rain = 0
KCO1 242221Z 09016KT 31/18 A2982 RMK A01 T03120179  RH  045%=      5-min Rain = 0
KCO1 242222Z 09015G21KT 31/18 A2982 RMK A01 T03110182  RH  046%=      5-min Rain = 0
KCO1 242223Z 09017KT 31/18 A2982 RMK A01 T03120183  RH  046%=      5-min Rain = 0
KCO1 242224Z 10014KT 31/18 A2982 RMK A01 T03110184  RH  047%=      5-min Rain = 0
KCO1 242225Z 10016KT 31/18 A2982 RMK A01 T03120184  RH  047%=      5-min Rain = 0
KCO1 242226Z 10017KT 31/18 A2982 RMK A01 T03120182  RH  046%=      5-min Rain = 0
KCO1 242227Z 11016KT 31/18 A2982 RMK A01 T03100180  RH  046%=      5-min Rain = 0
KCO1 242228Z 10017KT 31/18 A2982 RMK A01 T03100179  RH  046%=      5-min Rain = 0
KCO1 242229Z 09014G23KT 31/18 A2982 RMK A01 T03120175  RH  044%=      5-min Rain = 0
KCO1 242230Z 09019KT 31/18 A2982 RMK A01 T03140179  RH  045%=      5-min Rain = 0
KCO1 242231Z 11021KT 31/18 A2982 RMK A01 T03120184  RH  047%=      5-min Rain = 0
KCO1 242232Z 11021KT 31/19 A2982 RMK A01 T03090188  RH  048%=      5-min Rain = 0
KCO1 242233Z 11020KT 31/19 A2983 RMK A01 T03060189  RH  050%=      5-min Rain = 0
KCO1 242234Z 09016KT 30/19 A2982 RMK A01 T03020190  RH  051%=      5-min Rain = 0
KCO1 242235Z 10018KT 30/19 A2983 RMK A01 T03020190  RH  051%=      5-min Rain = 0
KCO1 242236Z 10016KT 30/19 A2983 RMK A01 T03020190  RH  051%=      5-min Rain = 0
KCO1 242237Z 09015KT 30/19 A2983 RMK A01 T03030191  RH  051%=      5-min Rain = 0
KCO1 242238Z 10015KT 30/19 A2983 RMK A01 T03040194  RH  052%=      5-min Rain = 0
KCO1 242239Z 10015KT 31/20 A2982 RMK A01 T03050195  RH  052%=      5-min Rain = 0
KCO1 242240Z 10014KT 31/19 A2983 RMK A01 T03070191  RH  050%=      5-min Rain = 0
KCO1 242241Z 10018KT 31/19 A2983 RMK A01 T03080188  RH  049%=      5-min Rain = 0
KCO1 242242Z 10018G25KT 31/19 A2983 RMK A01 T03060185  RH  049%=      5-min Rain = 0
KCO1 242243Z 11022KT 30/19 A2983 RMK A01 T03040191  RH  051%=      5-min Rain = 0
KCO1 242244Z 11017G26KT 30/19 A2983 RMK A01 T03010194  RH  053%=      5-min Rain = 0
KCO1 242245Z 11017KT 30/20 A2983 RMK A01 T02990195  RH  053%=      5-min Rain = 0
KCO1 242246Z 10016KT 30/19 A2983 RMK A01 T03020192  RH  052%=      5-min Rain = 0
KCO1 242247Z 09017KT 30/19 A2983 RMK A01 T03040190  RH  051%=      5-min Rain = 0
KCO1 242248Z 11021KT 31/19 A2983 RMK A01 T03050186  RH  049%=      5-min Rain = 0
KCO1 242249Z 11020KT 30/18 A2983 RMK A01 T03040184  RH  049%=      5-min Rain = 0
KCO1 242250Z 10020G25KT 30/18 A2983 RMK A01 T03030182  RH  048%=      5-min Rain = 0
KCO1 242251Z 10016G21KT 30/18 A2983 RMK A01 T03020180  RH  048%=      5-min Rain = 0
KCO1 242252Z 11016KT 30/18 A2983 RMK A01 T03020182  RH  049%=      5-min Rain = 0
KCO1 242253Z 10016KT 30/18 A2983 RMK A01 T03030181  RH  048%=      5-min Rain = 0
KCO1 242254Z 10014KT 30/18 A2983 RMK A01 T03030183  RH  048%=      5-min Rain = 0
KCO1 242255Z 10015G21KT 31/18 A2983 RMK A01 T03060184  RH  048%=      5-min Rain = 0
KCO1 242256Z 10017G24KT 31/18 A2983 RMK A01 T03070182  RH  047%=      5-min Rain = 0
KCO1 242257Z 10024KT 31/18 A2983 RMK A01 T03050176  RH  046%=      5-min Rain = 0
KCO1 242258Z 10025KT 30/17 A2983 RMK A01 T03000170  RH  046%=      5-min Rain = 0
KCO1 242259Z 10019KT 29/17 A2983 RMK A01 T02940170  RH  047%=      5-min Rain = 0
KCO1 242300Z 11019G26KT 29/17 A2983 RMK A01 T02930171  RH  048%=      5-min Rain = 0
KCO1 242301Z 11021G26KT 29/17 A2983 RMK A01 T02930167  RH  046%=      5-min Rain = 0
KCO1 242302Z 11021G27KT 29/16 A2983 RMK A01 T02910163  RH  046%=      5-min Rain = 0
KCO1 242303Z 10021KT 29/16 A2983 RMK A01 T02890163  RH  046%=      5-min Rain = 0
KCO1 242304Z 10022KT 29/16 A2983 RMK A01 T02880157  RH  045%=      5-min Rain = 0
KCO1 242305Z 10021G26KT 29/15 A2983 RMK A01 T02860152  RH  044%=      5-min Rain = 0
KCO1 242306Z 11017G24KT 29/15 A2983 RMK A01 T02860149  RH  043%=      5-min Rain = 0
KCO1 242307Z 11020G25KT 29/15 A2983 RMK A01 T02870145  RH  042%=      5-min Rain = 0
KCO1 242308Z 11018G26KT 29/15 A2983 RMK A01 T02880145  RH  042%=      5-min Rain = 0
KCO1 242309Z 10023KT 29/15 A2984 RMK A01 T02890145  RH  042%=      5-min Rain = 0
KCO1 242310Z 10021G26KT 29/15 A2984 RMK A01 T02870147  RH  042%=      5-min Rain = 0
KCO1 242311Z 11022KT 29/15 A2984 RMK A01 T02870147  RH  043%=      5-min Rain = 0
KCO1 242312Z 12020G25KT 29/15 A2983 RMK A01 T02860147  RH  042%=      5-min Rain = 0
KCO1 242313Z 12022KT 29/15 A2983 RMK A01 T02870148  RH  043%=      5-min Rain = 0
KCO1 242314Z 11017G22KT 29/15 A2984 RMK A01 T02850148  RH  043%=      5-min Rain = 0
KCO1 242315Z 11018G24KT 29/15 A2984 RMK A01 T02850149  RH  043%=      5-min Rain = 0
KCO1 242316Z 11023KT 29/14 A2984 RMK A01 T02860144  RH  042%=      5-min Rain = 0
KCO1 242317Z 12023G30KT 28/14 A2984 RMK A01 T02830143  RH  042%=      5-min Rain = 0
KCO1 242318Z 12022KT 28/15 A2984 RMK A01 T02790147  RH  044%=      5-min Rain = 0
KCO1 242319Z 12021KT 28/15 A2984 RMK A01 T02770152  RH  046%=      5-min Rain = 0
KCO1 242320Z 12021KT 28/16 A2984 RMK A01 T02750155  RH  048%=      5-min Rain = 0
KCO1 242321Z 12022G27KT 27/16 A2984 RMK A01 T02730158  RH  049%=      5-min Rain = 0
KCO1 242322Z 12022G27KT 27/16 A2984 RMK A01 T02700161  RH  051%=      5-min Rain = 0
KCO1 242323Z 12021KT 27/16 A2984 RMK A01 T02690162  RH  052%=      5-min Rain = 0
KCO1 242324Z 11018KT 27/16 A2984 RMK A01 T02690163  RH  053%=      5-min Rain = 0
KCO1 242325Z 11016KT 27/17 A2984 RMK A01 T02690165  RH  053%=      5-min Rain = 0
KCO1 242326Z 11019G26KT 27/17 A2983 RMK A01 T02720165  RH  052%=      5-min Rain = 0
KCO1 242327Z 12019G24KT 27/16 A2983 RMK A01 T02720162  RH  051%=      5-min Rain = 0
KCO1 242328Z 12020KT 27/16 A2983 RMK A01 T02700163  RH  052%=      5-min Rain = 0
KCO1 242329Z 12016KT 27/16 A2983 RMK A01 T02690164  RH  053%=      5-min Rain = 0
KCO1 242330Z 12015G20KT 27/16 A2983 RMK A01 T02700164  RH  052%=      5-min Rain = 0
KCO1 242331Z 12019KT 27/16 A2983 RMK A01 T02710163  RH  052%=      5-min Rain = 0
KCO1 242332Z 12016KT 27/16 A2983 RMK A01 T02700161  RH  051%=      5-min Rain = 0
KCO1 242333Z 11014G20KT 27/16 A2983 RMK A01 T02710163  RH  052%=      5-min Rain = 0
KCO1 242334Z 12019KT 27/16 A2983 RMK A01 T02730162  RH  051%=      5-min Rain = 0
KCO1 242335Z 12019G25KT 27/16 A2983 RMK A01 T02720161  RH  051%=      5-min Rain = 0
KCO1 242336Z 12020G26KT 27/16 A2983 RMK A01 T02720161  RH  051%=      5-min Rain = 0
KCO1 242337Z 11019KT 27/16 A2983 RMK A01 T02720161  RH  051%=      5-min Rain = 0
KCO1 242338Z 11018KT 27/16 A2983 RMK A01 T02720162  RH  051%=      5-min Rain = 0
KCO1 242339Z 12017KT 27/16 A2984 RMK A01 T02720162  RH  051%=      5-min Rain = 0
KCO1 242340Z 11018KT 27/16 A2983 RMK A01 T02720162  RH  051%=      5-min Rain = 0
KCO1 242341Z 12015KT 27/16 A2983 RMK A01 T02720164  RH  052%=      5-min Rain = 0
KCO1 242342Z 13017G23KT 28/16 A2983 RMK A01 T02750164  RH  051%=      5-min Rain = 0
KCO1 242343Z 13018KT 28/16 A2983 RMK A01 T02750162  RH  050%=      5-min Rain = 0
KCO1 242344Z 12017KT 28/16 A2983 RMK A01 T02760162  RH  050%=      5-min Rain = 0
KCO1 242345Z 13016KT 28/16 A2983 RMK A01 T02760163  RH  050%=      5-min Rain = 0
KCO1 242346Z 12017KT 28/16 A2983 RMK A01 T02750163  RH  050%=      5-min Rain = 0
KCO1 242347Z 12019KT 28/16 A2983 RMK A01 T02750162  RH  050%=      5-min Rain = 0
KCO1 242348Z 12017KT 27/16 A2983 RMK A01 T02740162  RH  050%=      5-min Rain = 0
KCO1 242349Z 11017KT 27/16 A2983 RMK A01 T02730162  RH  051%=      5-min Rain = 0
KCO1 242350Z 12017KT 27/16 A2983 RMK A01 T02720162  RH  051%=      5-min Rain = 0
KCO1 242351Z 12018KT 27/16 A2983 RMK A01 T02730162  RH  051%=      5-min Rain = 0
KCO1 242352Z 13022KT 27/16 A2983 RMK A01 T02740158  RH  049%=      5-min Rain = 0
KCO1 242353Z 12021KT 27/15 A2983 RMK A01 T02740153  RH  048%=      5-min Rain = 0
KCO1 242354Z 12017G22KT 27/15 A2983 RMK A01 T02710151  RH  048%=      5-min Rain = 0
KCO1 242355Z 13014KT 27/15 A2982 RMK A01 T02690151  RH  048%=      5-min Rain = 0
KCO1 242356Z 13017G22KT 27/15 A2982 RMK A01 T02680151  RH  049%=      5-min Rain = 0
KCO1 242357Z 13016G21KT 27/15 A2982 RMK A01 T02680151  RH  049%=      5-min Rain = 0
KCO1 242358Z 13018KT 27/15 A2983 RMK A01 T02660150  RH  049%=      5-min Rain = 0
KCO1 242359Z 12020KT 27/15 A2983 RMK A01 T02660149  RH  049%=      5-min Rain = 0
KCO1 250000Z 13016KT 27/15 A2983 RMK A01 T02650149  RH  049%=      5-min Rain = 0
KCO1 250001Z 12017KT 27/15 A2983 RMK A01 T02650148  RH  049%=      5-min Rain = 0
KCO1 250002Z 12015G20KT 27/15 A2983 RMK A01 T02660149  RH  048%=      5-min Rain = 0
KCO1 250003Z 12017KT 27/15 A2983 RMK A01 T02680148  RH  048%=      5-min Rain = 0
KCO1 250004Z 12019G25KT 27/15 A2983 RMK A01 T02690147  RH  047%=      5-min Rain = 0
KCO1 250005Z 12019KT 27/15 A2983 RMK A01 T02690146  RH  047%=      5-min Rain = 0
KCO1 250006Z 12017KT 27/15 A2983 RMK A01 T02680146  RH  047%=      5-min Rain = 0
KCO1 250007Z 12015KT 27/15 A2983 RMK A01 T02670146  RH  047%=      5-min Rain = 0
KCO1 250008Z 13015KT 27/15 A2983 RMK A01 T02670146  RH  047%=      5-min Rain = 0
KCO1 250009Z 13016KT 27/15 A2983 RMK A01 T02670146  RH  047%=      5-min Rain = 0
KCO1 250010Z 13015KT 27/15 A2983 RMK A01 T02670145  RH  047%=      5-min Rain = 0
KCO1 250011Z 13016KT 27/15 A2983 RMK A01 T02670145  RH  047%=      5-min Rain = 0
KCO1 250012Z 12014G19KT 27/15 A2983 RMK A01 T02670145  RH  047%=      5-min Rain = 0
KCO1 250013Z 12015KT 27/15 A2983 RMK A01 T02680145  RH  047%=      5-min Rain = 0
KCO1 250014Z 12018KT 27/14 A2983 RMK A01 T02690142  RH  046%=      5-min Rain = 0
KCO1 250015Z 12018KT 27/14 A2983 RMK A01 T02680142  RH  046%=      5-min Rain = 0
KCO1 250016Z 12015KT 27/14 A2983 RMK A01 T02680143  RH  046%=      5-min Rain = 0
KCO1 250017Z 12015KT 27/14 A2983 RMK A01 T02680142  RH  046%=      5-min Rain = 0
KCO1 250018Z 13016KT 27/14 A2983 RMK A01 T02690142  RH  046%=      5-min Rain = 0
KCO1 250019Z 13017KT 27/14 A2983 RMK A01 T02690141  RH  045%=      5-min Rain = 0
KCO1 250020Z 13016G22KT 27/14 A2983 RMK A01 T02690140  RH  045%=      5-min Rain = 0
KCO1 250021Z 13014KT 27/14 A2983 RMK A01 T02700140  RH  045%=      5-min Rain = 0
KCO1 250022Z 12016G24KT 27/14 A2983 RMK A01 T02720140  RH  044%=      5-min Rain = 0
KCO1 250023Z 12018KT 27/14 A2983 RMK A01 T02730139  RH  044%=      5-min Rain = 0
KCO1 250024Z 12019KT 27/14 A2984 RMK A01 T02720139  RH  044%=      5-min Rain = 0
KCO1 250025Z 12019KT 27/14 A2984 RMK A01 T02700139  RH  045%=      5-min Rain = 0
KCO1 250026Z 12020KT 27/14 A2984 RMK A01 T02690139  RH  045%=      5-min Rain = 0
KCO1 250027Z 12021G26KT 27/14 A2984 RMK A01 T02680137  RH  044%=      5-min Rain = 0
KCO1 250028Z 12021G26KT 27/13 A2984 RMK A01 T02680134  RH  044%=      5-min Rain = 0
KCO1 250029Z 13019G25KT 27/13 A2984 RMK A01 T02680133  RH  044%=      5-min Rain = 0
KCO1 250030Z 12020G25KT 27/13 A2984 RMK A01 T02680134  RH  044%=      5-min Rain = 0
KCO1 250031Z 13021KT 27/13 A2984 RMK A01 T02680134  RH  044%=      5-min Rain = 0
KCO1 250032Z 13021KT 27/13 A2984 RMK A01 T02680134  RH  044%=      5-min Rain = 0
KCO1 250033Z 13018G23KT 27/13 A2984 RMK A01 T02670133  RH  044%=      5-min Rain = 0
KCO1 250034Z 14017G23KT 27/13 A2984 RMK A01 T02680134  RH  044%=      5-min Rain = 0
KCO1 250035Z 13017KT 27/13 A2984 RMK A01 T02680134  RH  044%=      5-min Rain = 0
KCO1 250036Z 13019KT 27/14 A2984 RMK A01 T02690135  RH  044%=      5-min Rain = 0
KCO1 250037Z 13017KT 27/14 A2984 RMK A01 T02680135  RH  044%=      5-min Rain = 0
KCO1 250038Z 12020G25KT 27/13 A2984 RMK A01 T02680134  RH  044%=      5-min Rain = 0
KCO1 250039Z 13018KT 27/13 A2984 RMK A01 T02680134  RH  044%=      5-min Rain = 0
KCO1 250040Z 13017G22KT 27/14 A2984 RMK A01 T02680135  RH  044%=      5-min Rain = 0
KCO1 250041Z 13016KT 27/14 A2984 RMK A01 T02690135  RH  044%=      5-min Rain = 0
KCO1 250042Z 13016KT 27/14 A2984 RMK A01 T02680135  RH  044%=      5-min Rain = 0
KCO1 250043Z 13015KT 27/14 A2984 RMK A01 T02680136  RH  044%=      5-min Rain = 0
KCO1 250044Z 13012KT 27/14 A2984 RMK A01 T02680136  RH  044%=      5-min Rain = 0
KCO1 250045Z 13015KT 27/14 A2984 RMK A01 T02690138  RH  045%=      5-min Rain = 0
KCO1 250046Z 12014KT 27/14 A2984 RMK A01 T02680138  RH  045%=      5-min Rain = 0
KCO1 250047Z 12015KT 27/14 A2984 RMK A01 T02680140  RH  045%=      5-min Rain = 0
KCO1 250048Z 13013KT 27/14 A2983 RMK A01 T02670140  RH  045%=      5-min Rain = 0
KCO1 250049Z 13015KT 27/14 A2983 RMK A01 T02680141  RH  046%=      5-min Rain = 0
KCO1 250050Z 13011KT 27/14 A2983 RMK A01 T02670141  RH  046%=      5-min Rain = 0
KCO1 250051Z 14014G19KT 27/14 A2983 RMK A01 T02680143  RH  046%=      5-min Rain = 0
KCO1 250052Z 14015G21KT 27/15 A2983 RMK A01 T02670145  RH  047%=      5-min Rain = 0
KCO1 250053Z 14015G20KT 27/15 A2983 RMK A01 T02680148  RH  048%=      5-min Rain = 0
KCO1 250054Z 14016G21KT 27/15 A2983 RMK A01 T02680152  RH  049%=      5-min Rain = 0
KCO1 250055Z 14014KT 27/15 A2983 RMK A01 T02670154  RH  050%=      5-min Rain = 0
KCO1 250056Z 14018KT 27/16 A2983 RMK A01 T02660156  RH  051%=      5-min Rain = 0
KCO1 250057Z 13017KT 27/16 A2983 RMK A01 T02660157  RH  051%=      5-min Rain = 0
KCO1 250058Z 13017KT 27/16 A2983 RMK A01 T02650157  RH  051%=      5-min Rain = 0
KCO1 250059Z 13016G23KT 27/16 A2983 RMK A01 T02650158  RH  052%=      5-min Rain = 0
KCO1 250100Z 13016G21KT 27/16 A2983 RMK A01 T02650158  RH  052%=      5-min Rain = 0
KCO1 250101Z 13013KT 27/16 A2983 RMK A01 T02650158  RH  052%=      5-min Rain = 0
KCO1 250102Z 14017KT 27/16 A2983 RMK A01 T02650158  RH  052%=      5-min Rain = 0
KCO1 250103Z 13014KT 27/16 A2983 RMK A01 T02650159  RH  052%=      5-min Rain = 0
KCO1 250104Z 13011KT 27/16 A2983 RMK A01 T02650159  RH  052%=      5-min Rain = 0
KCO1 250105Z 14014KT 27/16 A2983 RMK A01 T02650160  RH  052%=      5-min Rain = 0
KCO1 250106Z 13013KT 27/16 A2984 RMK A01 T02650160  RH  052%=      5-min Rain = 0
KCO1 250107Z 14012KT 27/16 A2984 RMK A01 T02650160  RH  052%=      5-min Rain = 0
KCO1 250108Z 14011KT 27/16 A2984 RMK A01 T02660161  RH  052%=      5-min Rain = 0
KCO1 250109Z 14016G21KT 27/16 A2984 RMK A01 T02650162  RH  053%=      5-min Rain = 0
KCO1 250110Z 13015G21KT 27/17 A2984 RMK A01 T02650166  RH  054%=      5-min Rain = 0
KCO1 250111Z 13016KT 27/17 A2984 RMK A01 T02660169  RH  055%=      5-min Rain = 0
KCO1 250112Z 14018KT 27/17 A2984 RMK A01 T02660172  RH  056%=      5-min Rain = 0
KCO1 250113Z 14016G21KT 27/17 A2984 RMK A01 T02650173  RH  057%=      5-min Rain = 0
KCO1 250114Z 13019KT 27/18 A2984 RMK A01 T02650175  RH  058%=      5-min Rain = 0
KCO1 250115Z 14021KT 26/18 A2984 RMK A01 T02640176  RH  058%=      5-min Rain = 0
KCO1 250116Z 13019KT 26/18 A2984 RMK A01 T02640177  RH  059%=      5-min Rain = 0
KCO1 250117Z 13020G25KT 26/18 A2984 RMK A01 T02630177  RH  059%=      5-min Rain = 0
KCO1 250118Z 13016G21KT 26/18 A2984 RMK A01 T02630177  RH  059%=      5-min Rain = 0
KCO1 250119Z 13016G21KT 26/18 A2984 RMK A01 T02630177  RH  059%=      5-min Rain = 0
KCO1 250120Z 13018KT 26/18 A2984 RMK A01 T02630178  RH  059%=      5-min Rain = 0
KCO1 250121Z 13015KT 26/18 A2984 RMK A01 T02630178  RH  059%=      5-min Rain = 0
KCO1 250122Z 13013KT 26/18 A2985 RMK A01 T02630178  RH  059%=      5-min Rain = 0
KCO1 250123Z 14016KT 26/18 A2985 RMK A01 T02630178  RH  059%=      5-min Rain = 0
KCO1 250124Z 13015KT 26/18 A2984 RMK A01 T02630178  RH  059%=      5-min Rain = 0
KCO1 250125Z 13016KT 26/18 A2985 RMK A01 T02640178  RH  059%=      5-min Rain = 0
KCO1 250126Z 14015KT 26/18 A2985 RMK A01 T02630178  RH  059%=      5-min Rain = 0
KCO1 250127Z 14013KT 26/18 A2985 RMK A01 T02640178  RH  059%=      5-min Rain = 0
KCO1 250128Z 14012G18KT 26/18 A2985 RMK A01 T02640178  RH  059%=      5-min Rain = 0
KCO1 250129Z 13017G22KT 26/18 A2985 RMK A01 T02640179  RH  059%=      5-min Rain = 0
KCO1 250130Z 14018KT 26/18 A2985 RMK A01 T02640179  RH  059%=      5-min Rain = 0
KCO1 250131Z 13017KT 27/18 A2985 RMK A01 T02650179  RH  059%=      5-min Rain = 0
KCO1 250132Z 14014KT 27/18 A2985 RMK A01 T02650179  RH  059%=      5-min Rain = 0
KCO1 250133Z 13017KT 27/18 A2985 RMK A01 T02650180  RH  060%=      5-min Rain = 0
KCO1 250134Z 13017KT 27/18 A2985 RMK A01 T02650180  RH  060%=      5-min Rain = 0
KCO1 250135Z 13019KT 27/18 A2985 RMK A01 T02650180  RH  060%=      5-min Rain = 0
KCO1 250136Z 13016KT 27/18 A2985 RMK A01 T02650181  RH  060%=      5-min Rain = 0
KCO1 250137Z 13017KT 27/18 A2985 RMK A01 T02650181  RH  060%=      5-min Rain = 0
KCO1 250138Z 13019KT 26/18 A2985 RMK A01 T02640182  RH  060%=      5-min Rain = 0
KCO1 250139Z 13018KT 26/18 A2985 RMK A01 T02640182  RH  061%=      5-min Rain = 0
KCO1 250140Z 13015KT 26/18 A2985 RMK A01 T02640182  RH  061%=      5-min Rain = 0
KCO1 250141Z 13017G23KT 26/18 A2986 RMK A01 T02630182  RH  061%=      5-min Rain = 0
KCO1 250142Z 13019KT 26/18 A2986 RMK A01 T02630183  RH  061%=      5-min Rain = 0
KCO1 250143Z 13019KT 26/18 A2986 RMK A01 T02620183  RH  062%=      5-min Rain = 0
KCO1 250144Z 13019KT 26/18 A2986 RMK A01 T02620184  RH  062%=      5-min Rain = 0
KCO1 250145Z 13016KT 26/18 A2986 RMK A01 T02620184  RH  062%=      5-min Rain = 0
KCO1 250146Z 13018KT 26/18 A2986 RMK A01 T02620184  RH  062%=      5-min Rain = 0
KCO1 250147Z 13018KT 26/18 A2986 RMK A01 T02610184  RH  063%=      5-min Rain = 0
KCO1 250148Z 12018KT 26/18 A2986 RMK A01 T02610184  RH  063%=      5-min Rain = 0
KCO1 250149Z 13018G24KT 26/19 A2986 RMK A01 T02610185  RH  063%=      5-min Rain = 0
KCO1 250150Z 13021G26KT 26/19 A2986 RMK A01 T02600185  RH  063%=      5-min Rain = 0
KCO1 250151Z 13020G25KT 26/19 A2986 RMK A01 T02600185  RH  063%=      5-min Rain = 0
KCO1 250152Z 13018G23KT 26/19 A2986 RMK A01 T02600185  RH  063%=      5-min Rain = 0
KCO1 250153Z 12015G20KT 26/19 A2986 RMK A01 T02600185  RH  064%=      5-min Rain = 0
KCO1 250154Z 13016KT 26/19 A2986 RMK A01 T02590185  RH  064%=      5-min Rain = 0
KCO1 250155Z 14013KT 26/19 A2986 RMK A01 T02590185  RH  064%=      5-min Rain = 0
KCO1 250156Z 14014KT 26/19 A2986 RMK A01 T02580185  RH  064%=      5-min Rain = 0
KCO1 250157Z 14015KT 26/19 A2986 RMK A01 T02580185  RH  064%=      5-min Rain = 0
KCO1 250158Z 14017KT 26/19 A2986 RMK A01 T02570186  RH  065%=      5-min Rain = 0
KCO1 250159Z 14017KT 26/19 A2986 RMK A01 T02570186  RH  065%=      5-min Rain = 0
KCO1 250200Z 14015KT 26/19 A2986 RMK A01 T02560187  RH  065%=      5-min Rain = 0
KCO1 250201Z 14016KT 26/19 A2986 RMK A01 T02550187  RH  066%=      5-min Rain = 0
KCO1 250202Z 14015KT 26/19 A2986 RMK A01 T02550187  RH  066%=      5-min Rain = 0
KCO1 250203Z 13016KT 25/19 A2986 RMK A01 T02540186  RH  066%=      5-min Rain = 0
KCO1 250204Z 13015KT 25/19 A2987 RMK A01 T02540187  RH  066%=      5-min Rain = 0
KCO1 250205Z 14015G20KT 25/19 A2987 RMK A01 T02540187  RH  066%=      5-min Rain = 0
KCO1 250206Z 14015G20KT 25/19 A2987 RMK A01 T02540187  RH  066%=      5-min Rain = 0
KCO1 250207Z 14016KT 25/19 A2987 RMK A01 T02530187  RH  067%=      5-min Rain = 0
KCO1 250208Z 14015G21KT 25/19 A2987 RMK A01 T02530187  RH  067%=      5-min Rain = 0
KCO1 250209Z 14014G20KT 25/19 A2987 RMK A01 T02530188  RH  067%=      5-min Rain = 0
KCO1 250210Z 14014G20KT 25/19 A2987 RMK A01 T02530188  RH  067%=      5-min Rain = 0
KCO1 250211Z 13014G20KT 25/19 A2987 RMK A01 T02530188  RH  068%=      5-min Rain = 0
KCO1 250212Z 13014KT 25/19 A2987 RMK A01 T02520188  RH  068%=      5-min Rain = 0
KCO1 250213Z 13016KT 25/19 A2987 RMK A01 T02520189  RH  068%=      5-min Rain = 0
KCO1 250214Z 14017KT 25/19 A2987 RMK A01 T02510189  RH  068%=      5-min Rain = 0
KCO1 250215Z 14018KT 25/19 A2987 RMK A01 T02510189  RH  068%=      5-min Rain = 0
KCO1 250216Z 14017KT 25/19 A2987 RMK A01 T02510188  RH  068%=      5-min Rain = 0
KCO1 250217Z 14016G21KT 25/19 A2988 RMK A01 T02510188  RH  068%=      5-min Rain = 0
KCO1 250218Z 14016KT 25/19 A2988 RMK A01 T02500187  RH  068%=      5-min Rain = 0
KCO1 250219Z 14017G23KT 25/19 A2988 RMK A01 T02500187  RH  068%=      5-min Rain = 0
KCO1 250220Z 14021KT 25/19 A2987 RMK A01 T02500186  RH  067%=      5-min Rain = 0
KCO1 250221Z 13017KT 25/19 A2987 RMK A01 T02500186  RH  067%=      5-min Rain = 0
KCO1 250222Z 13016G21KT 25/19 A2987 RMK A01 T02490185  RH  067%=      5-min Rain = 0
KCO1 250223Z 13014KT 25/19 A2987 RMK A01 T02490186  RH  068%=      5-min Rain = 0
KCO1 250224Z 14012G18KT 25/19 A2987 RMK A01 T02490185  RH  068%=      5-min Rain = 0
KCO1 250225Z 13016KT 25/18 A2987 RMK A01 T02480182  RH  067%=      5-min Rain = 0
KCO1 250226Z 13016KT 25/18 A2987 RMK A01 T02480179  RH  065%=      5-min Rain = 0
KCO1 250227Z 13016KT 25/18 A2987 RMK A01 T02480177  RH  065%=      5-min Rain = 0
KCO1 250228Z 14016KT 25/18 A2987 RMK A01 T02480175  RH  064%=      5-min Rain = 0
KCO1 250229Z 14015KT 25/18 A2987 RMK A01 T02470175  RH  064%=      5-min Rain = 0
KCO1 250230Z 14014KT 25/17 A2987 RMK A01 T02470171  RH  063%=      5-min Rain = 0
KCO1 250231Z 14016KT 25/17 A2987 RMK A01 T02460167  RH  061%=      5-min Rain = 0
KCO1 250232Z 14016KT 25/17 A2987 RMK A01 T02460165  RH  061%=      5-min Rain = 0
KCO1 250233Z 14015KT 25/16 A2987 RMK A01 T02450164  RH  060%=      5-min Rain = 0
KCO1 250234Z 14015KT 25/16 A2987 RMK A01 T02450163  RH  060%=      5-min Rain = 0
KCO1 250235Z 14014KT 24/16 A2987 RMK A01 T02440162  RH  060%=      5-min Rain = 0
KCO1 250236Z 15013KT 24/16 A2987 RMK A01 T02440161  RH  060%=      5-min Rain = 0
KCO1 250237Z 15012KT 24/16 A2987 RMK A01 T02440159  RH  059%=      5-min Rain = 0
KCO1 250238Z 15012KT 24/16 A2987 RMK A01 T02440157  RH  059%=      5-min Rain = 0
KCO1 250239Z 15014KT 24/16 A2987 RMK A01 T02440155  RH  057%=      5-min Rain = 0
KCO1 250240Z 15014KT 24/15 A2987 RMK A01 T02440152  RH  057%=      5-min Rain = 0
KCO1 250241Z 15012KT 24/15 A2987 RMK A01 T02440150  RH  056%=      5-min Rain = 0
KCO1 250242Z 15011KT 24/15 A2988 RMK A01 T02440149  RH  055%=      5-min Rain = 0
KCO1 250243Z 14012KT 24/15 A2988 RMK A01 T02440148  RH  055%=      5-min Rain = 0
KCO1 250244Z 14010KT 24/15 A2988 RMK A01 T02440147  RH  055%=      5-min Rain = 0
KCO1 250245Z 15012KT 24/15 A2988 RMK A01 T02440147  RH  055%=      5-min Rain = 0
KCO1 250246Z 15014KT 24/15 A2988 RMK A01 T02440145  RH  054%=      5-min Rain = 0
KCO1 250247Z 15011KT 24/15 A2988 RMK A01 T02440145  RH  054%=      5-min Rain = 0
KCO1 250248Z 15012KT 24/15 A2988 RMK A01 T02440145  RH  054%=      5-min Rain = 0
KCO1 250249Z 15015KT 24/14 A2988 RMK A01 T02440144  RH  054%=      5-min Rain = 0
KCO1 250250Z 15011KT 24/14 A2988 RMK A01 T02440144  RH  054%=      5-min Rain = 0
KCO1 250251Z 14009KT 24/15 A2988 RMK A01 T02440145  RH  054%=      5-min Rain = 0
KCO1 250252Z 14009KT 24/15 A2988 RMK A01 T02430145  RH  054%=      5-min Rain = 0
KCO1 250253Z 14010KT 24/15 A2988 RMK A01 T02430146  RH  055%=      5-min Rain = 0
KCO1 250254Z 14009KT 24/15 A2988 RMK A01 T02420146  RH  055%=      5-min Rain = 0
KCO1 250255Z 15011KT 24/15 A2988 RMK A01 T02420146  RH  055%=      5-min Rain = 0
KCO1 250256Z 14010KT 24/15 A2988 RMK A01 T02420147  RH  055%=      5-min Rain = 0
KCO1 250257Z 15012KT 24/15 A2988 RMK A01 T02420148  RH  056%=      5-min Rain = 0
KCO1 250258Z 14011KT 24/15 A2988 RMK A01 T02410149  RH  056%=      5-min Rain = 0
KCO1 250259Z 15010KT 24/15 A2988 RMK A01 T02410149  RH  056%=      5-min Rain = 0
KCO1 250300Z 15010KT 24/15 A2988 RMK A01 T02420151  RH  057%=      5-min Rain = 0
KCO1 250301Z 15012KT 24/15 A2988 RMK A01 T02410151  RH  057%=      5-min Rain = 0
KCO1 250302Z 14011KT 24/15 A2988 RMK A01 T02420152  RH  057%=      5-min Rain = 0
KCO1 250303Z 15010KT 24/15 A2988 RMK A01 T02410152  RH  057%=      5-min Rain = 0
KCO1 250304Z 15010KT 24/15 A2988 RMK A01 T02410153  RH  058%=      5-min Rain = 0
KCO1 250305Z 14010KT 24/15 A2988 RMK A01 T02410153  RH  058%=      5-min Rain = 0
KCO1 250306Z 15011KT 24/15 A2988 RMK A01 T02410154  RH  058%=      5-min Rain = 0
KCO1 250307Z 14011KT 24/15 A2988 RMK A01 T02410154  RH  058%=      5-min Rain = 0
KCO1 250308Z 14010KT 24/16 A2988 RMK A01 T02420155  RH  058%=      5-min Rain = 0
KCO1 250309Z 14009KT 24/16 A2988 RMK A01 T02420156  RH  058%=      5-min Rain = 0
KCO1 250310Z 15012KT 24/16 A2988 RMK A01 T02420156  RH  059%=      5-min Rain = 0
KCO1 250311Z 14010KT 24/16 A2988 RMK A01 T02430157  RH  059%=      5-min Rain = 0
KCO1 250312Z 14010KT 24/16 A2988 RMK A01 T02430157  RH  059%=      5-min Rain = 0
KCO1 250313Z 14010KT 24/16 A2988 RMK A01 T02430158  RH  059%=      5-min Rain = 0
KCO1 250314Z 15009KT 24/16 A2988 RMK A01 T02430158  RH  059%=      5-min Rain = 0
KCO1 250315Z 14011G16KT 24/16 A2988 RMK A01 T02430159  RH  059%=      5-min Rain = 0
KCO1 250316Z 15008KT 24/16 A2988 RMK A01 T02430160  RH  060%=      5-min Rain = 0
KCO1 250317Z 14009KT 24/16 A2988 RMK A01 T02430160  RH  060%=      5-min Rain = 0
KCO1 250318Z 15009KT 24/16 A2988 RMK A01 T02430161  RH  060%=      5-min Rain = 0
KCO1 250319Z 14010KT 24/16 A2988 RMK A01 T02430162  RH  060%=      5-min Rain = 0
KCO1 250320Z 14009G14KT 24/16 A2988 RMK A01 T02430162  RH  061%=      5-min Rain = 0
KCO1 250321Z 15010KT 24/16 A2988 RMK A01 T02440163  RH  061%=      5-min Rain = 0
KCO1 250322Z 14009KT 24/16 A2988 RMK A01 T02430163  RH  061%=      5-min Rain = 0
KCO1 250323Z 15013KT 24/16 A2988 RMK A01 T02440164  RH  061%=      5-min Rain = 0
KCO1 250324Z 14011KT 24/17 A2988 RMK A01 T02440165  RH  061%=      5-min Rain = 0
KCO1 250325Z 14012KT 25/17 A2988 RMK A01 T02450166  RH  061%=      5-min Rain = 0
KCO1 250326Z 15011KT 25/17 A2988 RMK A01 T02460166  RH  061%=      5-min Rain = 0
KCO1 250327Z 14010KT 25/17 A2988 RMK A01 T02460166  RH  061%=      5-min Rain = 0
KCO1 250328Z 14011KT 25/17 A2988 RMK A01 T02460167  RH  061%=      5-min Rain = 0
KCO1 250329Z 13011KT 25/17 A2988 RMK A01 T02460167  RH  061%=      5-min Rain = 0
KCO1 250330Z 13009KT 25/17 A2989 RMK A01 T02460167  RH  061%=      5-min Rain = 0
KCO1 250331Z 13008KT 25/17 A2989 RMK A01 T02460168  RH  062%=      5-min Rain = 0
KCO1 250332Z 13010KT 25/17 A2988 RMK A01 T02460168  RH  062%=      5-min Rain = 0
KCO1 250333Z 13011KT 25/17 A2988 RMK A01 T02460168  RH  062%=      5-min Rain = 0
KCO1 250334Z 13009KT 25/17 A2988 RMK A01 T02460169  RH  062%=      5-min Rain = 0
KCO1 250335Z 13010KT 25/17 A2988 RMK A01 T02470169  RH  062%=      5-min Rain = 0
KCO1 250336Z 13009G14KT 25/17 A2988 RMK A01 T02460169  RH  062%=      5-min Rain = 0
KCO1 250337Z 14009KT 25/17 A2988 RMK A01 T02460170  RH  062%=      5-min Rain = 0
KCO1 250338Z 14009KT 25/17 A2988 RMK A01 T02470170  RH  062%=      5-min Rain = 0
KCO1 250339Z 13008KT 25/17 A2988 RMK A01 T02470170  RH  062%=      5-min Rain = 0
KCO1 250340Z 14008KT 25/17 A2988 RMK A01 T02470171  RH  062%=      5-min Rain = 0
KCO1 250341Z 13009KT 25/17 A2988 RMK A01 T02470172  RH  063%=      5-min Rain = 0
KCO1 250342Z 14011KT 25/17 A2988 RMK A01 T02470173  RH  063%=      5-min Rain = 0
KCO1 250343Z 14015KT 25/17 A2988 RMK A01 T02480174  RH  063%=      5-min Rain = 0
KCO1 250344Z 13013KT 25/18 A2988 RMK A01 T02500176  RH  063%=      5-min Rain = 0
KCO1 250345Z 13012KT 25/18 A2988 RMK A01 T02510176  RH  063%=      5-min Rain = 0
KCO1 250346Z 14010KT 25/18 A2988 RMK A01 T02520176  RH  063%=      5-min Rain = 0
KCO1 250347Z 13013G18KT 25/18 A2988 RMK A01 T02520176  RH  063%=      5-min Rain = 0
KCO1 250348Z 13015KT 25/18 A2988 RMK A01 T02530179  RH  064%=      5-min Rain = 0
KCO1 250349Z 13013KT 25/18 A2988 RMK A01 T02540180  RH  063%=      5-min Rain = 0
KCO1 250350Z 13013KT 26/18 A2988 RMK A01 T02550180  RH  063%=      5-min Rain = 0
KCO1 250351Z 13016KT 26/18 A2988 RMK A01 T02550180  RH  063%=      5-min Rain = 0
KCO1 250352Z 13014G19KT 26/18 A2988 RMK A01 T02560181  RH  063%=      5-min Rain = 0
KCO1 250353Z 14014KT 26/18 A2988 RMK A01 T02570181  RH  063%=      5-min Rain = 0
KCO1 250354Z 13012KT 26/18 A2988 RMK A01 T02570181  RH  063%=      5-min Rain = 0
KCO1 250355Z 13014KT 26/18 A2988 RMK A01 T02570181  RH  063%=      5-min Rain = 0
KCO1 250356Z 13015G21KT 26/18 A2988 RMK A01 T02570181  RH  063%=      5-min Rain = 0
KCO1 250357Z 13018KT 26/18 A2988 RMK A01 T02570182  RH  063%=      5-min Rain = 0
KCO1 250358Z 13014KT 26/18 A2988 RMK A01 T02580182  RH  063%=      5-min Rain = 0
KCO1 250359Z 13014KT 26/18 A2988 RMK A01 T02580182  RH  063%=      5-min Rain = 0
KCO1 250400Z 13014G19KT 26/18 A2988 RMK A01 T02580182  RH  063%=      5-min Rain = 0
KCO1 250401Z 14016KT 26/18 A2987 RMK A01 T02580182  RH  063%=      5-min Rain = 0
KCO1 250402Z 13012G17KT 26/18 A2988 RMK A01 T02590183  RH  063%=      5-min Rain = 0
KCO1 250403Z 14014KT 26/18 A2988 RMK A01 T02590183  RH  063%=      5-min Rain = 0
KCO1 250404Z 14015KT 26/18 A2988 RMK A01 T02590183  RH  063%=      5-min Rain = 0
KCO1 250405Z 14013G19KT 26/18 A2988 RMK A01 T02590183  RH  063%=      5-min Rain = 0
KCO1 250406Z 14013KT 26/18 A2988 RMK A01 T02590183  RH  063%=      5-min Rain = 0
KCO1 250407Z 15011KT 26/18 A2988 RMK A01 T02590183  RH  063%=      5-min Rain = 0
KCO1 250408Z 15013KT 26/18 A2988 RMK A01 T02590183  RH  063%=      5-min Rain = 0
KCO1 250409Z 14013G19KT 26/18 A2988 RMK A01 T02580183  RH  063%=      5-min Rain = 0
KCO1 250410Z 14016KT 26/18 A2988 RMK A01 T02580183  RH  063%=      5-min Rain = 0
KCO1 250411Z 14017KT 26/18 A2988 RMK A01 T02590184  RH  063%=      5-min Rain = 0
KCO1 250412Z 14016KT 26/18 A2988 RMK A01 T02590183  RH  063%=      5-min Rain = 0
KCO1 250413Z 13015KT 26/18 A2988 RMK A01 T02590184  RH  063%=      5-min Rain = 0
KCO1 250414Z 14014KT 26/18 A2988 RMK A01 T02590183  RH  063%=      5-min Rain = 0
KCO1 250415Z 14013KT 26/18 A2988 RMK A01 T02580183  RH  063%=      5-min Rain = 0
KCO1 250416Z 14013KT 26/18 A2988 RMK A01 T02580183  RH  063%=      5-min Rain = 0
KCO1 250417Z 14013KT 26/18 A2988 RMK A01 T02570183  RH  064%=      5-min Rain = 0
KCO1 250418Z 14014G19KT 26/18 A2988 RMK A01 T02570184  RH  064%=      5-min Rain = 0
KCO1 250419Z 14013KT 26/18 A2988 RMK A01 T02570183  RH  064%=      5-min Rain = 0
KCO1 250420Z 14015KT 26/18 A2988 RMK A01 T02560183  RH  064%=      5-min Rain = 0
KCO1 250421Z 15013G18KT 26/18 A2988 RMK A01 T02570183  RH  064%=      5-min Rain = 0
KCO1 250422Z 14012KT 26/18 A2988 RMK A01 T02570183  RH  064%=      5-min Rain = 0
KCO1 250423Z 14012KT 26/18 A2989 RMK A01 T02570184  RH  064%=      5-min Rain = 0
KCO1 250424Z 14016KT 26/18 A2988 RMK A01 T02560183  RH  064%=      5-min Rain = 0
KCO1 250425Z 15015KT 26/18 A2988 RMK A01 T02560183  RH  064%=      5-min Rain = 0
KCO1 250426Z 15013KT 26/18 A2988 RMK A01 T02560183  RH  064%=      5-min Rain = 0
KCO1 250427Z 14014KT 26/18 A2988 RMK A01 T02560184  RH  064%=      5-min Rain = 0
KCO1 250428Z 14012KT 26/18 A2988 RMK A01 T02560183  RH  064%=      5-min Rain = 0
KCO1 250429Z 15014KT 26/18 A2988 RMK A01 T02550183  RH  064%=      5-min Rain = 0
KCO1 250430Z 15013G19KT 26/18 A2988 RMK A01 T02550183  RH  065%=      5-min Rain = 0
KCO1 250431Z 15016G21KT 26/18 A2988 RMK A01 T02550183  RH  065%=      5-min Rain = 0
KCO1 250432Z 15016KT 26/18 A2988 RMK A01 T02550184  RH  065%=      5-min Rain = 0
KCO1 250433Z 14011KT 25/18 A2988 RMK A01 T02540183  RH  064%=      5-min Rain = 0
KCO1 250434Z 15016G21KT 26/18 A2988 RMK A01 T02550183  RH  065%=      5-min Rain = 0
KCO1 250435Z 14014KT 26/18 A2988 RMK A01 T02550184  RH  065%=      5-min Rain = 0
KCO1 250436Z 14017KT 26/18 A2988 RMK A01 T02550183  RH  065%=      5-min Rain = 0
KCO1 250437Z 14017G23KT 26/18 A2988 RMK A01 T02550183  RH  065%=      5-min Rain = 0
KCO1 250438Z 14015KT 26/18 A2988 RMK A01 T02550183  RH  064%=      5-min Rain = 0
KCO1 250439Z 14016KT 26/18 A2988 RMK A01 T02550184  RH  065%=      5-min Rain = 0
KCO1 250440Z 14014KT 26/18 A2988 RMK A01 T02550184  RH  065%=      5-min Rain = 0
KCO1 250441Z 14016KT 26/18 A2988 RMK A01 T02550184  RH  065%=      5-min Rain = 0
KCO1 250442Z 14015G20KT 26/18 A2988 RMK A01 T02550184  RH  065%=      5-min Rain = 0
KCO1 250443Z 14015KT 25/18 A2988 RMK A01 T02540184  RH  065%=      5-min Rain = 0
KCO1 250444Z 14013KT 25/18 A2988 RMK A01 T02540184  RH  065%=      5-min Rain = 0
KCO1 250445Z 14014KT 25/18 A2987 RMK A01 T02540184  RH  065%=      5-min Rain = 0
KCO1 250446Z 13014G19KT 25/18 A2987 RMK A01 T02540184  RH  065%=      5-min Rain = 0
KCO1 250447Z 14017KT 25/18 A2988 RMK A01 T02540184  RH  065%=      5-min Rain = 0
KCO1 250448Z 13017G22KT 25/18 A2987 RMK A01 T02540184  RH  065%=      5-min Rain = 0
KCO1 250449Z 14014KT 26/18 A2988 RMK A01 T02550184  RH  065%=      5-min Rain = 0
KCO1 250450Z 13013G18KT 26/18 A2988 RMK A01 T02550184  RH  065%=      5-min Rain = 0
KCO1 250451Z 13012KT 25/18 A2987 RMK A01 T02540184  RH  065%=      5-min Rain = 0
KCO1 250452Z 14014KT 25/18 A2987 RMK A01 T02540184  RH  065%=      5-min Rain = 0
KCO1 250453Z 14013KT 25/18 A2987 RMK A01 T02540184  RH  065%=      5-min Rain = 0
KCO1 250454Z 13015KT 25/18 A2987 RMK A01 T02540184  RH  065%=      5-min Rain = 0
KCO1 250455Z 14012G17KT 25/18 A2987 RMK A01 T02540184  RH  065%=      5-min Rain = 0
KCO1 250456Z 14015KT 26/18 A2987 RMK A01 T02550184  RH  065%=      5-min Rain = 0
KCO1 250457Z 14015KT 26/18 A2987 RMK A01 T02550184  RH  065%=      5-min Rain = 0
KCO1 250458Z 13012KT 26/18 A2987 RMK A01 T02550184  RH  065%=      5-min Rain = 0
KCO1 250459Z 13014KT 26/18 A2987 RMK A01 T02550184  RH  065%=      5-min Rain = 0

Page generated in 0.142 seconds.